BWA901C EGLL-TFFF
Flight info
| Callsign | BWA901C |
|---|---|
| Flight time | 9h 7m |
| Altitude | 34000 |
| Route | GOGSI N621 EVTES N514 ADKIK DCT JOZMA DCT GAPLI/M084F340 DCT TAMEL DCT PITAX/N0485F340 DCT HIDRA/M084F340 DCT 42N020W DCT ANAVA DCT 41N030W/M084F360 DCT KOLIT DCT 40N040W 35N045W 30N050W 25N053W/M084F380 20N055W DCT ELJEZ/N0487F380 UN669 MEBUK DCT UMAMU UMAMU2V |
| Aircraft | B77W/H-SDE1E2E3FGHIJ2J3J4J5M1RWXY/LB1D1 |
Departure
| Time | 2026-04-22 10:01 |
|---|---|
| Airport | London Heathrow Airport (EGLL) |
Arrival
| Time | 2026-04-22 19:08 |
|---|---|
| Airport | Martinique Aimé Césaire International Airport (TFFF) |
| Time | Latitude | Longitude | Altitude | Speed | Heading |
|---|---|---|---|---|---|
| 2026-04-22 09:37 | 51.47040 | -0.46354 | 92 ft | 0 kts | 235° |
| 2026-04-22 09:47 | 51.47039 | -0.46357 | 91 ft | 0 kts | 235° |
| 2026-04-22 09:48 | 51.47052 | -0.46326 | 96 ft | 4 kts | 235° |
| 2026-04-22 09:48 | 51.47067 | -0.46292 | 92 ft | 4 kts | 245° |
| 2026-04-22 09:49 | 51.47072 | -0.46260 | 93 ft | 4 kts | 280° |
| 2026-04-22 09:49 | 51.47067 | -0.46238 | 90 ft | 3 kts | 324° |
| 2026-04-22 09:49 | 51.47050 | -0.46219 | 92 ft | 4 kts | 325° |
| 2026-04-22 09:49 | 51.47039 | -0.46207 | 93 ft | 0 kts | 325° |
| 2026-04-22 09:50 | 51.47036 | -0.46204 | 93 ft | 0 kts | 325° |
| 2026-04-22 09:53 | 51.47039 | -0.46207 | 96 ft | 2 kts | 325° |
| 2026-04-22 09:53 | 51.47051 | -0.46220 | 96 ft | 3 kts | 325° |
| 2026-04-22 09:54 | 51.47083 | -0.46256 | 94 ft | 11 kts | 325° |
| 2026-04-22 09:54 | 51.47150 | -0.46329 | 95 ft | 12 kts | 325° |
| 2026-04-22 09:54 | 51.47217 | -0.46405 | 95 ft | 12 kts | 320° |
| 2026-04-22 09:54 | 51.47239 | -0.46529 | 91 ft | 12 kts | 269° |
| 2026-04-22 09:55 | 51.47238 | -0.46661 | 91 ft | 12 kts | 269° |
| 2026-04-22 09:55 | 51.47237 | -0.46789 | 91 ft | 9 kts | 269° |
| 2026-04-22 09:55 | 51.47200 | -0.46863 | 94 ft | 10 kts | 192° |
| 2026-04-22 09:55 | 51.47112 | -0.46867 | 91 ft | 16 kts | 180° |
| 2026-04-22 09:56 | 51.47000 | -0.46867 | 91 ft | 16 kts | 179° |
| 2026-04-22 09:56 | 51.46888 | -0.46865 | 91 ft | 16 kts | 179° |
| 2026-04-22 09:56 | 51.46794 | -0.46864 | 94 ft | 9 kts | 180° |
| 2026-04-22 09:56 | 51.46751 | -0.46920 | 96 ft | 11 kts | 257° |
| 2026-04-22 09:57 | 51.46746 | -0.47112 | 95 ft | 21 kts | 269° |
| 2026-04-22 09:57 | 51.46745 | -0.47349 | 91 ft | 21 kts | 270° |
| 2026-04-22 09:57 | 51.46744 | -0.47586 | 91 ft | 21 kts | 270° |
| 2026-04-22 09:57 | 51.46744 | -0.47820 | 92 ft | 21 kts | 270° |
| 2026-04-22 09:58 | 51.46743 | -0.48045 | 91 ft | 19 kts | 269° |
| 2026-04-22 09:58 | 51.46742 | -0.48255 | 92 ft | 18 kts | 269° |
| 2026-04-22 09:58 | 51.46741 | -0.48456 | 92 ft | 17 kts | 270° |
| 2026-04-22 09:58 | 51.46741 | -0.48634 | 91 ft | 12 kts | 269° |
| 2026-04-22 09:59 | 51.46730 | -0.48726 | 96 ft | 8 kts | 231° |
| 2026-04-22 09:59 | 51.46678 | -0.48751 | 94 ft | 8 kts | 184° |
| 2026-04-22 09:59 | 51.46620 | -0.48763 | 95 ft | 10 kts | 194° |
| 2026-04-22 09:59 | 51.46554 | -0.48791 | 94 ft | 10 kts | 189° |
| 2026-04-22 10:00 | 51.46492 | -0.48752 | 95 ft | 10 kts | 129° |
| 2026-04-22 10:00 | 51.46477 | -0.48606 | 96 ft | 24 kts | 90° |
| 2026-04-22 10:00 | 51.46480 | -0.48030 | 92 ft | 84 kts | 90° |
| 2026-04-22 10:00 | 51.46483 | -0.46757 | 96 ft | 141 kts | 89° |
| 2026-04-22 10:01 | 51.46486 | -0.44922 | 177 ft | 174 kts | 90° |
| 2026-04-22 10:01 | 51.46469 | -0.43009 | 818 ft | 170 kts | 90° |
| 2026-04-22 10:01 | 51.46321 | -0.41131 | 1371 ft | 176 kts | 114° |
| 2026-04-22 10:01 | 51.45578 | -0.39452 | 1622 ft | 194 kts | 123° |
| 2026-04-22 10:02 | 51.44757 | -0.37584 | 1884 ft | 215 kts | 121° |
| 2026-04-22 10:02 | 51.43890 | -0.35578 | 2465 ft | 224 kts | 124° |
| 2026-04-22 10:02 | 51.42712 | -0.33842 | 3073 ft | 237 kts | 146° |
| 2026-04-22 10:02 | 51.41146 | -0.32907 | 3842 ft | 247 kts | 165° |
| 2026-04-22 10:03 | 51.39611 | -0.32888 | 4417 ft | 259 kts | 186° |
| 2026-04-22 10:03 | 51.37918 | -0.34029 | 5171 ft | 272 kts | 211° |
| 2026-04-22 10:03 | 51.36470 | -0.36041 | 5759 ft | 280 kts | 217° |
| 2026-04-22 10:03 | 51.35026 | -0.38159 | 6443 ft | 284 kts | 217° |
| 2026-04-22 10:04 | 51.34051 | -0.39569 | 6886 ft | 285 kts | 217° |
| 2026-04-22 10:04 | 51.32569 | -0.41691 | 7555 ft | 287 kts | 217° |
| 2026-04-22 10:04 | 51.30815 | -0.44918 | 8344 ft | 298 kts | 235° |
| 2026-04-22 10:04 | 51.29907 | -0.47918 | 9044 ft | 301 kts | 247° |
| 2026-04-22 10:05 | 51.29462 | -0.50067 | 9522 ft | 304 kts | 251° |
| 2026-04-22 10:05 | 51.28884 | -0.53337 | 10157 ft | 308 kts | 252° |
| 2026-04-22 10:05 | 51.28310 | -0.56663 | 10655 ft | 316 kts | 252° |
| 2026-04-22 10:05 | 51.27683 | -0.60142 | 10860 ft | 336 kts | 251° |
| 2026-04-22 10:06 | 51.26974 | -0.63818 | 11045 ft | 358 kts | 251° |
| 2026-04-22 10:06 | 51.26216 | -0.67676 | 11219 ft | 379 kts | 250° |
| 2026-04-22 10:06 | 51.25411 | -0.71779 | 11845 ft | 385 kts | 251° |
| 2026-04-22 10:06 | 51.24613 | -0.75871 | 12719 ft | 388 kts | 251° |
| 2026-04-22 10:07 | 51.23807 | -0.79995 | 13683 ft | 389 kts | 251° |
| 2026-04-22 10:07 | 51.23006 | -0.84104 | 14716 ft | 384 kts | 251° |
| 2026-04-22 10:07 | 51.22205 | -0.88187 | 15465 ft | 391 kts | 252° |
| 2026-04-22 10:07 | 51.21377 | -0.92364 | 16163 ft | 395 kts | 252° |
| 2026-04-22 10:08 | 51.20471 | -0.96442 | 17111 ft | 391 kts | 245° |
| 2026-04-22 10:08 | 51.18986 | -1.00057 | 17452 ft | 405 kts | 231° |
| 2026-04-22 10:08 | 51.17161 | -1.03550 | 18182 ft | 408 kts | 232° |
| 2026-04-22 10:08 | 51.15345 | -1.07062 | 18879 ft | 413 kts | 233° |
| 2026-04-22 10:09 | 51.13521 | -1.10686 | 19553 ft | 415 kts | 234° |
| 2026-04-22 10:09 | 51.11731 | -1.14319 | 20191 ft | 419 kts | 235° |
| 2026-04-22 10:09 | 51.09931 | -1.18007 | 20742 ft | 425 kts | 235° |
| 2026-04-22 10:09 | 51.08105 | -1.21739 | 21319 ft | 430 kts | 234° |
| 2026-04-22 10:10 | 51.06281 | -1.25463 | 21899 ft | 434 kts | 235° |
| 2026-04-22 10:10 | 51.04417 | -1.29258 | 22542 ft | 437 kts | 234° |
| 2026-04-22 10:10 | 51.02554 | -1.33068 | 23197 ft | 438 kts | 237° |
| 2026-04-22 10:10 | 51.00912 | -1.37142 | 23815 ft | 438 kts | 244° |
| 2026-04-22 10:11 | 50.99609 | -1.41508 | 24295 ft | 439 kts | 250° |
| 2026-04-22 10:11 | 50.98619 | -1.46094 | 24803 ft | 438 kts | 257° |
| 2026-04-22 10:11 | 50.97837 | -1.50768 | 25316 ft | 440 kts | 258° |
| 2026-04-22 10:11 | 50.97061 | -1.55489 | 25813 ft | 442 kts | 258° |
| 2026-04-22 10:12 | 50.96275 | -1.60236 | 26279 ft | 445 kts | 257° |
| 2026-04-22 10:12 | 50.95475 | -1.64996 | 26747 ft | 448 kts | 257° |
| 2026-04-22 10:12 | 50.94662 | -1.69767 | 27207 ft | 450 kts | 257° |
| 2026-04-22 10:12 | 50.93835 | -1.74568 | 27657 ft | 452 kts | 257° |
| 2026-04-22 10:13 | 50.93000 | -1.79395 | 28093 ft | 455 kts | 257° |
| 2026-04-22 10:13 | 50.92160 | -1.84230 | 28509 ft | 457 kts | 257° |
| 2026-04-22 10:13 | 50.91435 | -1.88395 | 28857 ft | 459 kts | 257° |
| 2026-04-22 10:13 | 50.90580 | -1.93302 | 29237 ft | 461 kts | 257° |
| 2026-04-22 10:14 | 50.89723 | -1.98211 | 29593 ft | 463 kts | 257° |
| 2026-04-22 10:14 | 50.88861 | -2.03123 | 30074 ft | 462 kts | 257° |
| 2026-04-22 10:14 | 50.87999 | -2.08013 | 30589 ft | 460 kts | 257° |
| 2026-04-22 10:14 | 50.87141 | -2.12875 | 31034 ft | 458 kts | 256° |
| 2026-04-22 10:15 | 50.86286 | -2.17718 | 31437 ft | 457 kts | 256° |
| 2026-04-22 10:15 | 50.85427 | -2.22568 | 31831 ft | 456 kts | 256° |
| 2026-04-22 10:15 | 50.84571 | -2.27389 | 32244 ft | 454 kts | 256° |
| 2026-04-22 10:15 | 50.83716 | -2.32195 | 32613 ft | 453 kts | 256° |
| 2026-04-22 10:16 | 50.82860 | -2.36991 | 32985 ft | 453 kts | 256° |
| 2026-04-22 10:16 | 50.82003 | -2.41785 | 33365 ft | 451 kts | 256° |
| 2026-04-22 10:16 | 50.81158 | -2.46501 | 33732 ft | 450 kts | 256° |
| 2026-04-22 10:16 | 50.80293 | -2.51308 | 34090 ft | 449 kts | 256° |
| 2026-04-22 10:17 | 50.78912 | -2.60915 | 34244 ft | 453 kts | 261° |
| 2026-04-22 10:17 | 50.77805 | -2.70670 | 34234 ft | 448 kts | 261° |
| 2026-04-22 10:18 | 50.76695 | -2.80312 | 34240 ft | 445 kts | 261° |
| 2026-04-22 10:18 | 50.75568 | -2.89913 | 34234 ft | 444 kts | 260° |
| 2026-04-22 10:19 | 50.74428 | -2.99499 | 34243 ft | 444 kts | 260° |
| 2026-04-22 10:19 | 50.73279 | -3.09080 | 34236 ft | 445 kts | 260° |
| 2026-04-22 10:20 | 50.72121 | -3.18678 | 34243 ft | 445 kts | 260° |
| 2026-04-22 10:20 | 50.70953 | -3.28282 | 34241 ft | 446 kts | 260° |
| 2026-04-22 10:21 | 50.69777 | -3.37890 | 34246 ft | 446 kts | 259° |
| 2026-04-22 10:21 | 50.68593 | -3.47479 | 34237 ft | 446 kts | 259° |
| 2026-04-22 10:22 | 50.67402 | -3.57071 | 34245 ft | 445 kts | 259° |
| 2026-04-22 10:22 | 50.66208 | -3.66617 | 34230 ft | 444 kts | 259° |
| 2026-04-22 10:23 | 50.65009 | -3.76142 | 34228 ft | 443 kts | 259° |
| 2026-04-22 10:23 | 50.63804 | -3.85649 | 34210 ft | 442 kts | 259° |
| 2026-04-22 10:24 | 50.62594 | -3.95120 | 34204 ft | 440 kts | 258° |
| 2026-04-22 10:24 | 50.61326 | -4.04555 | 34202 ft | 440 kts | 258° |
| 2026-04-22 10:25 | 50.60029 | -4.13951 | 34196 ft | 439 kts | 258° |
| 2026-04-22 10:25 | 50.58726 | -4.23356 | 34195 ft | 439 kts | 257° |
| 2026-04-22 10:26 | 50.57426 | -4.32733 | 34192 ft | 439 kts | 257° |
| 2026-04-22 10:26 | 50.56127 | -4.42062 | 34187 ft | 439 kts | 257° |
| 2026-04-22 10:27 | 50.54813 | -4.51435 | 34191 ft | 439 kts | 257° |
| 2026-04-22 10:27 | 50.53491 | -4.60803 | 34164 ft | 440 kts | 257° |
| 2026-04-22 10:28 | 50.52160 | -4.70183 | 34175 ft | 440 kts | 257° |
| 2026-04-22 10:28 | 50.50818 | -4.79579 | 34162 ft | 440 kts | 257° |
| 2026-04-22 10:29 | 50.49470 | -4.88957 | 34161 ft | 441 kts | 257° |
| 2026-04-22 10:29 | 50.48113 | -4.98342 | 34159 ft | 441 kts | 257° |
| 2026-04-22 10:30 | 50.46749 | -5.07719 | 34159 ft | 440 kts | 257° |
| 2026-04-22 10:30 | 50.45378 | -5.17084 | 34154 ft | 440 kts | 256° |
| 2026-04-22 10:31 | 50.44003 | -5.26419 | 34160 ft | 439 kts | 256° |
| 2026-04-22 10:31 | 50.42619 | -5.35762 | 34156 ft | 439 kts | 256° |
| 2026-04-22 10:32 | 50.41240 | -5.45014 | 34156 ft | 439 kts | 256° |
| 2026-04-22 10:32 | 50.39842 | -5.54335 | 34147 ft | 439 kts | 256° |
| 2026-04-22 10:33 | 50.38436 | -5.63660 | 34140 ft | 440 kts | 256° |
| 2026-04-22 10:33 | 50.37023 | -5.72975 | 34126 ft | 440 kts | 256° |
| 2026-04-22 10:34 | 50.35599 | -5.82304 | 34130 ft | 441 kts | 256° |
| 2026-04-22 10:34 | 50.34166 | -5.91641 | 34150 ft | 441 kts | 256° |
| 2026-04-22 10:35 | 50.32724 | -6.00983 | 34154 ft | 442 kts | 256° |
| 2026-04-22 10:35 | 50.31273 | -6.10329 | 34148 ft | 442 kts | 255° |
| 2026-04-22 10:36 | 50.29822 | -6.19615 | 34145 ft | 443 kts | 255° |
| 2026-04-22 10:36 | 50.28354 | -6.28962 | 34150 ft | 443 kts | 255° |
| 2026-04-22 10:37 | 50.26139 | -6.42970 | 34138 ft | 442 kts | 255° |
| 2026-04-22 10:38 | 50.24653 | -6.52298 | 34142 ft | 442 kts | 255° |
| 2026-04-22 10:38 | 50.23160 | -6.61614 | 34134 ft | 442 kts | 255° |
| 2026-04-22 10:39 | 50.21661 | -6.70918 | 34131 ft | 442 kts | 255° |
| 2026-04-22 10:39 | 50.20157 | -6.80200 | 34129 ft | 441 kts | 255° |
| 2026-04-22 10:40 | 50.18646 | -6.89479 | 34131 ft | 441 kts | 255° |
| 2026-04-22 10:40 | 50.17126 | -6.98757 | 34118 ft | 441 kts | 255° |
| 2026-04-22 10:41 | 50.15601 | -7.08013 | 34123 ft | 440 kts | 254° |
| 2026-04-22 10:41 | 50.14069 | -7.17266 | 34123 ft | 440 kts | 254° |
| 2026-04-22 10:42 | 50.12543 | -7.26431 | 34112 ft | 440 kts | 254° |
| 2026-04-22 10:42 | 50.10999 | -7.35656 | 34105 ft | 440 kts | 254° |
| 2026-04-22 10:43 | 50.09449 | -7.44871 | 34100 ft | 440 kts | 253° |
| 2026-04-22 10:43 | 50.07898 | -7.54037 | 34096 ft | 439 kts | 253° |
| 2026-04-22 10:44 | 50.06332 | -7.63244 | 34088 ft | 439 kts | 253° |
| 2026-04-22 10:44 | 50.04763 | -7.72422 | 34078 ft | 439 kts | 253° |
| 2026-04-22 10:45 | 50.03186 | -7.81601 | 34073 ft | 439 kts | 253° |
| 2026-04-22 10:45 | 50.01602 | -7.90769 | 34068 ft | 439 kts | 253° |
| 2026-04-22 10:46 | 49.99517 | -7.99626 | 34074 ft | 436 kts | 242° |
| 2026-04-22 10:46 | 49.96379 | -8.07583 | 34068 ft | 435 kts | 232° |
| 2026-04-22 10:47 | 49.92691 | -8.15076 | 34056 ft | 438 kts | 232° |
| 2026-04-22 10:47 | 49.88976 | -8.22579 | 34054 ft | 439 kts | 232° |
| 2026-04-22 10:48 | 49.85251 | -8.30132 | 34056 ft | 443 kts | 232° |
| 2026-04-22 10:48 | 49.81491 | -8.37766 | 34054 ft | 447 kts | 232° |
| 2026-04-22 10:49 | 49.77738 | -8.45379 | 34045 ft | 443 kts | 232° |
| 2026-04-22 10:49 | 49.73980 | -8.52960 | 34043 ft | 444 kts | 231° |
| 2026-04-22 10:50 | 49.70226 | -8.60518 | 34033 ft | 443 kts | 232° |
| 2026-04-22 10:50 | 49.66462 | -8.68100 | 34042 ft | 446 kts | 231° |
| 2026-04-22 10:51 | 49.62688 | -8.75662 | 34021 ft | 443 kts | 231° |
| 2026-04-22 10:51 | 49.58926 | -8.83180 | 34021 ft | 444 kts | 231° |
| 2026-04-22 10:52 | 49.55159 | -8.90677 | 34017 ft | 445 kts | 231° |
| 2026-04-22 10:52 | 49.51377 | -8.98192 | 34009 ft | 443 kts | 231° |
| 2026-04-22 10:53 | 49.47589 | -9.05693 | 34003 ft | 444 kts | 230° |
| 2026-04-22 10:53 | 49.43797 | -9.13183 | 33997 ft | 445 kts | 230° |
| 2026-04-22 10:54 | 49.40635 | -9.19424 | 33987 ft | 446 kts | 230° |
| 2026-04-22 10:54 | 49.36804 | -9.26953 | 33987 ft | 446 kts | 230° |
| 2026-04-22 10:55 | 49.32997 | -9.34409 | 33981 ft | 444 kts | 230° |
| 2026-04-22 10:55 | 49.29156 | -9.41897 | 33983 ft | 449 kts | 230° |
| 2026-04-22 10:56 | 49.25347 | -9.49322 | 33954 ft | 438 kts | 230° |
| 2026-04-22 10:56 | 49.21620 | -9.56573 | 33958 ft | 428 kts | 230° |
| 2026-04-22 10:57 | 49.17921 | -9.63751 | 33964 ft | 434 kts | 230° |
| 2026-04-22 10:57 | 49.14160 | -9.71023 | 33959 ft | 437 kts | 230° |
| 2026-04-22 10:58 | 49.10432 | -9.78204 | 33947 ft | 428 kts | 230° |
| 2026-04-22 10:58 | 49.06710 | -9.85353 | 33943 ft | 432 kts | 230° |
| 2026-04-22 10:59 | 49.02977 | -9.92502 | 33927 ft | 430 kts | 229° |
| 2026-04-22 10:59 | 48.99269 | -9.99600 | 33934 ft | 430 kts | 229° |
| 2026-04-22 11:00 | 48.95546 | -10.06709 | 33931 ft | 432 kts | 229° |
| 2026-04-22 11:00 | 48.91765 | -10.13898 | 33925 ft | 438 kts | 229° |
| 2026-04-22 11:01 | 48.87944 | -10.21143 | 33922 ft | 440 kts | 229° |
| 2026-04-22 11:01 | 48.84117 | -10.28389 | 33906 ft | 438 kts | 229° |
| 2026-04-22 11:02 | 48.80316 | -10.35565 | 33895 ft | 434 kts | 229° |
| 2026-04-22 11:02 | 48.76541 | -10.42679 | 33903 ft | 431 kts | 229° |
| 2026-04-22 11:03 | 48.72175 | -10.48741 | 33908 ft | 428 kts | 211° |
| 2026-04-22 11:03 | 48.66839 | -10.52450 | 33900 ft | 425 kts | 196° |
| 2026-04-22 11:04 | 48.61115 | -10.54861 | 33900 ft | 428 kts | 195° |
| 2026-04-22 11:04 | 48.55354 | -10.57261 | 33905 ft | 431 kts | 196° |
| 2026-04-22 11:05 | 48.49557 | -10.59713 | 33890 ft | 434 kts | 196° |
| 2026-04-22 11:05 | 48.43741 | -10.62199 | 33900 ft | 435 kts | 196° |
| 2026-04-22 11:06 | 48.37922 | -10.64693 | 33892 ft | 435 kts | 196° |
| 2026-04-22 11:06 | 48.32113 | -10.67178 | 33886 ft | 433 kts | 196° |
| 2026-04-22 11:07 | 48.26330 | -10.69643 | 33883 ft | 432 kts | 195° |
| 2026-04-22 11:07 | 48.20562 | -10.72095 | 33880 ft | 430 kts | 195° |
| 2026-04-22 11:08 | 48.14813 | -10.74532 | 33882 ft | 429 kts | 195° |
| 2026-04-22 11:08 | 48.09081 | -10.76957 | 33878 ft | 428 kts | 195° |
| 2026-04-22 11:09 | 48.03360 | -10.79372 | 33876 ft | 427 kts | 195° |
| 2026-04-22 11:09 | 47.97645 | -10.81778 | 33879 ft | 427 kts | 195° |
| 2026-04-22 11:10 | 47.91931 | -10.84179 | 33874 ft | 427 kts | 195° |
| 2026-04-22 11:10 | 47.86253 | -10.86559 | 33873 ft | 427 kts | 195° |
| 2026-04-22 11:11 | 47.80540 | -10.88948 | 33868 ft | 427 kts | 195° |
| 2026-04-22 11:11 | 47.74822 | -10.91334 | 33868 ft | 427 kts | 195° |
| 2026-04-22 11:12 | 47.69107 | -10.93713 | 33869 ft | 426 kts | 195° |
| 2026-04-22 11:12 | 47.63404 | -10.96081 | 33864 ft | 425 kts | 194° |
| 2026-04-22 11:13 | 47.57716 | -10.98439 | 33864 ft | 424 kts | 194° |
| 2026-04-22 11:13 | 47.52037 | -11.00786 | 33860 ft | 424 kts | 194° |
| 2026-04-22 11:14 | 47.46361 | -11.03128 | 33854 ft | 423 kts | 194° |
| 2026-04-22 11:14 | 47.40737 | -11.05443 | 33856 ft | 422 kts | 194° |
| 2026-04-22 11:15 | 47.35083 | -11.07765 | 33857 ft | 422 kts | 194° |
| 2026-04-22 11:15 | 47.29430 | -11.10082 | 33852 ft | 422 kts | 194° |
| 2026-04-22 11:16 | 47.23773 | -11.12394 | 33849 ft | 422 kts | 194° |
| 2026-04-22 11:16 | 47.18105 | -11.14707 | 33848 ft | 423 kts | 194° |
| 2026-04-22 11:17 | 47.12425 | -11.17019 | 33844 ft | 424 kts | 194° |
| 2026-04-22 11:17 | 47.06735 | -11.19330 | 33841 ft | 424 kts | 195° |
| 2026-04-22 11:18 | 47.01039 | -11.21638 | 33838 ft | 425 kts | 194° |
| 2026-04-22 11:18 | 46.95341 | -11.23942 | 33839 ft | 425 kts | 195° |
| 2026-04-22 11:19 | 46.89650 | -11.26239 | 33837 ft | 425 kts | 195° |
| 2026-04-22 11:19 | 46.83949 | -11.28534 | 33831 ft | 424 kts | 195° |
| 2026-04-22 11:20 | 46.78267 | -11.30816 | 33835 ft | 424 kts | 195° |
| 2026-04-22 11:20 | 46.72586 | -11.33094 | 33827 ft | 423 kts | 195° |
| 2026-04-22 11:21 | 46.66907 | -11.35365 | 33834 ft | 422 kts | 195° |
| 2026-04-22 11:21 | 46.61287 | -11.37608 | 33834 ft | 422 kts | 195° |
| 2026-04-22 11:22 | 46.55627 | -11.39862 | 33831 ft | 421 kts | 195° |
| 2026-04-22 11:22 | 46.49976 | -11.42107 | 33827 ft | 421 kts | 195° |
| 2026-04-22 11:23 | 46.44331 | -11.44346 | 33825 ft | 420 kts | 194° |
| 2026-04-22 11:23 | 46.38688 | -11.46571 | 33851 ft | 419 kts | 198° |
| 2026-04-22 11:24 | 46.33089 | -11.48781 | 33818 ft | 416 kts | 198° |
| 2026-04-22 11:24 | 46.27515 | -11.50972 | 33824 ft | 414 kts | 199° |
| 2026-04-22 11:25 | 46.21952 | -11.53163 | 33824 ft | 413 kts | 199° |
| 2026-04-22 11:25 | 46.16408 | -11.55343 | 33817 ft | 413 kts | 199° |
| 2026-04-22 11:26 | 46.10848 | -11.57522 | 33817 ft | 414 kts | 199° |
| 2026-04-22 11:26 | 46.05322 | -11.59682 | 33813 ft | 415 kts | 199° |
| 2026-04-22 11:27 | 45.99755 | -11.61853 | 33821 ft | 415 kts | 199° |
| 2026-04-22 11:27 | 45.94171 | -11.64026 | 33822 ft | 416 kts | 199° |
| 2026-04-22 11:28 | 45.88580 | -11.66197 | 33816 ft | 416 kts | 199° |
| 2026-04-22 11:28 | 45.82977 | -11.68367 | 33817 ft | 417 kts | 199° |
| 2026-04-22 11:29 | 45.77380 | -11.70531 | 33811 ft | 416 kts | 199° |
| 2026-04-22 11:29 | 45.71786 | -11.72689 | 33813 ft | 416 kts | 199° |
| 2026-04-22 11:30 | 45.66196 | -11.74841 | 33811 ft | 416 kts | 199° |
| 2026-04-22 11:30 | 45.60617 | -11.76985 | 33810 ft | 415 kts | 199° |
| 2026-04-22 11:31 | 45.55033 | -11.79126 | 33816 ft | 415 kts | 199° |
| 2026-04-22 11:31 | 45.49497 | -11.81245 | 33812 ft | 414 kts | 199° |
| 2026-04-22 11:32 | 45.43927 | -11.83372 | 33813 ft | 414 kts | 199° |
| 2026-04-22 11:32 | 45.38359 | -11.85494 | 33813 ft | 414 kts | 199° |
| 2026-04-22 11:33 | 45.32791 | -11.87612 | 33815 ft | 414 kts | 200° |
| 2026-04-22 11:33 | 45.27223 | -11.89725 | 33813 ft | 414 kts | 200° |
| 2026-04-22 11:34 | 45.21692 | -11.91821 | 33811 ft | 414 kts | 200° |
| 2026-04-22 11:34 | 45.16123 | -11.93927 | 33809 ft | 414 kts | 200° |
| 2026-04-22 11:35 | 45.10553 | -11.96029 | 33810 ft | 414 kts | 200° |
| 2026-04-22 11:35 | 45.04988 | -11.98134 | 33805 ft | 411 kts | 202° |
| 2026-04-22 11:35 | 45.02386 | -11.99703 | 33815 ft | 404 kts | 213° |
| 2026-04-22 11:36 | 45.00068 | -12.01930 | 33823 ft | 403 kts | 219° |
| 2026-04-22 11:36 | 44.96155 | -12.07538 | 33810 ft | 401 kts | 234° |
| 2026-04-22 11:37 | 44.92995 | -12.14046 | 33808 ft | 403 kts | 234° |
| 2026-04-22 11:37 | 44.89809 | -12.20599 | 33806 ft | 405 kts | 234° |
| 2026-04-22 11:38 | 44.86590 | -12.27136 | 33804 ft | 407 kts | 234° |
| 2026-04-22 11:38 | 44.81723 | -12.36941 | 33792 ft | 407 kts | 234° |
| 2026-04-22 11:39 | 44.78498 | -12.43413 | 33792 ft | 406 kts | 233° |
| 2026-04-22 11:39 | 44.75257 | -12.49904 | 33789 ft | 405 kts | 233° |
| 2026-04-22 11:40 | 44.72021 | -12.56369 | 33789 ft | 404 kts | 233° |
| 2026-04-22 11:40 | 44.68790 | -12.62811 | 33786 ft | 403 kts | 233° |
| 2026-04-22 11:41 | 44.65565 | -12.69226 | 33776 ft | 402 kts | 233° |
| 2026-04-22 11:41 | 44.62338 | -12.75633 | 33782 ft | 402 kts | 233° |
| 2026-04-22 11:42 | 44.59109 | -12.82028 | 33776 ft | 401 kts | 233° |
| 2026-04-22 11:42 | 44.55879 | -12.88414 | 33773 ft | 401 kts | 233° |
| 2026-04-22 11:43 | 44.52645 | -12.94793 | 33772 ft | 401 kts | 233° |
| 2026-04-22 11:43 | 44.49644 | -13.01392 | 33768 ft | 403 kts | 239° |
| 2026-04-22 11:44 | 44.47301 | -13.08529 | 33774 ft | 404 kts | 243° |
| 2026-04-22 11:44 | 44.45043 | -13.15749 | 33764 ft | 404 kts | 243° |
| 2026-04-22 11:45 | 44.42775 | -13.22951 | 33769 ft | 404 kts | 243° |
| 2026-04-22 11:45 | 44.40500 | -13.30148 | 33745 ft | 404 kts | 243° |
| 2026-04-22 11:46 | 44.38237 | -13.37286 | 33755 ft | 404 kts | 243° |
| 2026-04-22 11:46 | 44.35958 | -13.44455 | 33743 ft | 404 kts | 243° |
| 2026-04-22 11:47 | 44.33671 | -13.51631 | 33746 ft | 404 kts | 243° |
| 2026-04-22 11:47 | 44.31755 | -13.57624 | 33741 ft | 404 kts | 242° |
| 2026-04-22 11:48 | 44.29479 | -13.64728 | 33738 ft | 403 kts | 242° |
| 2026-04-22 11:48 | 44.27185 | -13.71871 | 33742 ft | 403 kts | 242° |
| 2026-04-22 11:49 | 44.24884 | -13.79013 | 33727 ft | 404 kts | 242° |
| 2026-04-22 11:49 | 44.22578 | -13.86153 | 33726 ft | 403 kts | 242° |
| 2026-04-22 11:50 | 44.20273 | -13.93270 | 33717 ft | 402 kts | 242° |
| 2026-04-22 11:50 | 44.17967 | -14.00373 | 33719 ft | 402 kts | 242° |
| 2026-04-22 11:51 | 44.15657 | -14.07466 | 33712 ft | 402 kts | 242° |
| 2026-04-22 11:51 | 44.13344 | -14.14549 | 33717 ft | 402 kts | 242° |
| 2026-04-22 11:52 | 44.11026 | -14.21631 | 33706 ft | 402 kts | 242° |
| 2026-04-22 11:52 | 44.08703 | -14.28706 | 33701 ft | 402 kts | 242° |
| 2026-04-22 11:53 | 44.06377 | -14.35773 | 33699 ft | 402 kts | 242° |
| 2026-04-22 11:53 | 44.04048 | -14.42832 | 33688 ft | 402 kts | 242° |
| 2026-04-22 11:54 | 44.01714 | -14.49886 | 33702 ft | 402 kts | 242° |
| 2026-04-22 11:54 | 43.99377 | -14.56930 | 33687 ft | 402 kts | 242° |
| 2026-04-22 11:55 | 43.97033 | -14.63978 | 33676 ft | 402 kts | 242° |
| 2026-04-22 11:55 | 43.94685 | -14.71018 | 33681 ft | 402 kts | 241° |
| 2026-04-22 11:56 | 43.92335 | -14.78047 | 33679 ft | 401 kts | 241° |
| 2026-04-22 11:56 | 43.89982 | -14.85064 | 33684 ft | 401 kts | 241° |
| 2026-04-22 11:57 | 43.87624 | -14.92080 | 33687 ft | 402 kts | 241° |
| 2026-04-22 11:57 | 43.85255 | -14.99108 | 33652 ft | 403 kts | 241° |
| 2026-04-22 11:58 | 43.82881 | -15.06136 | 33656 ft | 403 kts | 241° |
| 2026-04-22 11:58 | 43.80505 | -15.13148 | 33658 ft | 403 kts | 241° |
| 2026-04-22 11:59 | 43.78123 | -15.20162 | 33660 ft | 403 kts | 241° |
| 2026-04-22 11:59 | 43.75746 | -15.27141 | 33643 ft | 403 kts | 241° |
| 2026-04-22 12:00 | 43.73354 | -15.34146 | 33637 ft | 403 kts | 241° |
| 2026-04-22 12:00 | 43.70966 | -15.41127 | 33644 ft | 401 kts | 240° |
| 2026-04-22 12:01 | 43.68583 | -15.48072 | 33637 ft | 399 kts | 240° |
| 2026-04-22 12:01 | 43.66200 | -15.54998 | 33633 ft | 399 kts | 240° |
| 2026-04-22 12:02 | 43.63811 | -15.61921 | 33630 ft | 400 kts | 240° |
| 2026-04-22 12:02 | 43.61413 | -15.68853 | 33632 ft | 401 kts | 240° |
| 2026-04-22 12:03 | 43.59001 | -15.75811 | 33621 ft | 403 kts | 240° |
| 2026-04-22 12:03 | 43.56582 | -15.82771 | 33617 ft | 403 kts | 240° |
| 2026-04-22 12:04 | 43.54155 | -15.89738 | 33611 ft | 403 kts | 240° |
| 2026-04-22 12:04 | 43.51724 | -15.96696 | 33609 ft | 403 kts | 240° |
| 2026-04-22 12:05 | 43.49290 | -16.03646 | 33604 ft | 403 kts | 240° |
| 2026-04-22 12:05 | 43.46851 | -16.10591 | 33604 ft | 403 kts | 240° |
| 2026-04-22 12:06 | 43.44407 | -16.17535 | 33589 ft | 403 kts | 240° |
| 2026-04-22 12:06 | 43.41958 | -16.24473 | 33591 ft | 403 kts | 240° |
| 2026-04-22 12:07 | 43.39522 | -16.31358 | 33584 ft | 403 kts | 240° |
| 2026-04-22 12:07 | 43.37066 | -16.38284 | 33581 ft | 403 kts | 240° |
| 2026-04-22 12:08 | 43.34603 | -16.45211 | 33579 ft | 403 kts | 239° |
| 2026-04-22 12:08 | 43.32130 | -16.52145 | 33574 ft | 404 kts | 239° |
| 2026-04-22 12:09 | 43.29657 | -16.59067 | 33571 ft | 405 kts | 239° |
| 2026-04-22 12:09 | 43.27169 | -16.66011 | 33561 ft | 405 kts | 239° |
| 2026-04-22 12:10 | 43.24678 | -16.72947 | 33560 ft | 405 kts | 239° |
| 2026-04-22 12:10 | 43.22181 | -16.79882 | 33564 ft | 406 kts | 239° |
| 2026-04-22 12:11 | 43.19690 | -16.86783 | 33542 ft | 407 kts | 239° |
| 2026-04-22 12:11 | 43.17175 | -16.93733 | 33538 ft | 408 kts | 239° |
| 2026-04-22 12:12 | 43.14650 | -17.00693 | 33555 ft | 408 kts | 239° |
| 2026-04-22 12:12 | 43.12115 | -17.07665 | 33540 ft | 409 kts | 239° |
| 2026-04-22 12:13 | 43.09575 | -17.14633 | 33535 ft | 409 kts | 239° |
| 2026-04-22 12:13 | 43.07033 | -17.21587 | 33529 ft | 408 kts | 239° |
| 2026-04-22 12:14 | 43.04489 | -17.28530 | 33530 ft | 408 kts | 239° |
| 2026-04-22 12:14 | 43.01942 | -17.35465 | 33524 ft | 408 kts | 239° |
| 2026-04-22 12:15 | 42.99389 | -17.42398 | 33526 ft | 409 kts | 239° |
| 2026-04-22 12:15 | 42.96830 | -17.49332 | 33506 ft | 409 kts | 239° |
| 2026-04-22 12:16 | 42.94264 | -17.56267 | 33505 ft | 409 kts | 239° |
| 2026-04-22 12:16 | 42.91688 | -17.63208 | 33508 ft | 411 kts | 239° |
| 2026-04-22 12:17 | 42.89120 | -17.70115 | 33509 ft | 411 kts | 239° |
| 2026-04-22 12:17 | 42.86531 | -17.77061 | 33508 ft | 411 kts | 238° |
| 2026-04-22 12:18 | 42.83937 | -17.84004 | 33505 ft | 411 kts | 238° |
| 2026-04-22 12:18 | 42.81338 | -17.90941 | 33510 ft | 411 kts | 238° |
| 2026-04-22 12:19 | 42.78735 | -17.97874 | 33496 ft | 411 kts | 238° |
| 2026-04-22 12:19 | 42.76129 | -18.04795 | 33497 ft | 411 kts | 238° |
| 2026-04-22 12:20 | 42.73517 | -18.11719 | 33496 ft | 411 kts | 238° |
| 2026-04-22 12:20 | 42.70897 | -18.18644 | 33489 ft | 411 kts | 238° |
| 2026-04-22 12:21 | 42.68276 | -18.25556 | 33489 ft | 411 kts | 238° |
| 2026-04-22 12:21 | 42.65653 | -18.32456 | 33491 ft | 411 kts | 238° |
| 2026-04-22 12:22 | 42.63023 | -18.39359 | 33486 ft | 411 kts | 238° |
| 2026-04-22 12:22 | 42.60387 | -18.46259 | 33484 ft | 412 kts | 238° |
| 2026-04-22 12:23 | 42.57750 | -18.53146 | 33480 ft | 412 kts | 238° |
| 2026-04-22 12:23 | 42.55105 | -18.60037 | 33474 ft | 412 kts | 238° |
| 2026-04-22 12:24 | 42.52473 | -18.66878 | 33480 ft | 412 kts | 238° |
| 2026-04-22 12:24 | 42.49817 | -18.73765 | 33479 ft | 412 kts | 238° |
| 2026-04-22 12:25 | 42.47158 | -18.80644 | 33463 ft | 412 kts | 238° |
| 2026-04-22 12:25 | 42.44499 | -18.87506 | 33484 ft | 411 kts | 238° |
| 2026-04-22 12:26 | 42.41836 | -18.94361 | 33460 ft | 412 kts | 237° |
| 2026-04-22 12:26 | 42.39164 | -19.01224 | 33464 ft | 412 kts | 237° |
| 2026-04-22 12:27 | 42.36482 | -19.08094 | 33465 ft | 414 kts | 237° |
| 2026-04-22 12:27 | 42.33786 | -19.14984 | 33462 ft | 415 kts | 237° |
| 2026-04-22 12:28 | 42.31100 | -19.21835 | 33452 ft | 415 kts | 237° |
| 2026-04-22 12:28 | 42.28391 | -19.28727 | 33454 ft | 415 kts | 237° |
| 2026-04-22 12:29 | 42.25676 | -19.35617 | 33450 ft | 416 kts | 237° |
| 2026-04-22 12:29 | 42.22956 | -19.42505 | 33450 ft | 416 kts | 237° |
| 2026-04-22 12:30 | 42.18861 | -19.52843 | 33448 ft | 417 kts | 237° |
| 2026-04-22 12:31 | 42.16119 | -19.59743 | 33449 ft | 418 kts | 237° |
| 2026-04-22 12:31 | 42.13369 | -19.66650 | 33446 ft | 418 kts | 237° |
| 2026-04-22 12:32 | 42.10611 | -19.73560 | 33449 ft | 419 kts | 237° |
| 2026-04-22 12:32 | 42.06460 | -19.83930 | 33454 ft | 420 kts | 237° |
| 2026-04-22 12:33 | 42.03681 | -19.90853 | 33442 ft | 421 kts | 236° |
| 2026-04-22 12:33 | 42.00900 | -19.97765 | 33442 ft | 421 kts | 236° |
| 2026-04-22 12:34 | 41.98281 | -20.04759 | 33439 ft | 422 kts | 239° |
| 2026-04-22 12:34 | 41.95763 | -20.11892 | 33438 ft | 422 kts | 239° |
| 2026-04-22 12:35 | 41.93245 | -20.19020 | 33441 ft | 422 kts | 239° |
| 2026-04-22 12:35 | 41.90715 | -20.26139 | 33436 ft | 422 kts | 239° |
| 2026-04-22 12:36 | 41.88606 | -20.32053 | 33436 ft | 422 kts | 239° |
| 2026-04-22 12:36 | 41.86063 | -20.39160 | 33434 ft | 423 kts | 239° |
| 2026-04-22 12:37 | 41.83514 | -20.46268 | 33436 ft | 423 kts | 239° |
| 2026-04-22 12:37 | 41.80957 | -20.53378 | 33433 ft | 424 kts | 239° |
| 2026-04-22 12:38 | 41.78393 | -20.60492 | 33439 ft | 424 kts | 239° |
| 2026-04-22 12:38 | 41.75819 | -20.67613 | 33428 ft | 425 kts | 238° |
| 2026-04-22 12:39 | 41.71938 | -20.78319 | 33430 ft | 426 kts | 238° |
| 2026-04-22 12:40 | 41.69356 | -20.85419 | 33438 ft | 428 kts | 239° |
| 2026-04-22 12:40 | 41.66746 | -20.92580 | 33435 ft | 429 kts | 239° |
| 2026-04-22 12:41 | 41.64124 | -20.99755 | 33434 ft | 430 kts | 239° |
| 2026-04-22 12:41 | 41.61491 | -21.06942 | 33433 ft | 431 kts | 239° |
| 2026-04-22 12:42 | 41.58847 | -21.14140 | 33426 ft | 432 kts | 239° |
| 2026-04-22 12:42 | 41.56195 | -21.21340 | 33426 ft | 433 kts | 239° |
| 2026-04-22 12:43 | 41.53528 | -21.28565 | 33425 ft | 434 kts | 239° |
| 2026-04-22 12:43 | 41.50853 | -21.35793 | 33423 ft | 435 kts | 239° |
| 2026-04-22 12:44 | 41.48167 | -21.43034 | 33426 ft | 436 kts | 239° |
| 2026-04-22 12:44 | 41.45472 | -21.50278 | 33417 ft | 437 kts | 239° |
| 2026-04-22 12:45 | 41.42759 | -21.57552 | 33421 ft | 438 kts | 239° |
| 2026-04-22 12:45 | 41.40042 | -21.64821 | 33413 ft | 439 kts | 239° |
| 2026-04-22 12:46 | 41.37310 | -21.72111 | 33416 ft | 440 kts | 239° |
| 2026-04-22 12:46 | 41.34565 | -21.79415 | 33423 ft | 442 kts | 240° |
| 2026-04-22 12:47 | 41.31828 | -21.86681 | 33422 ft | 443 kts | 240° |
| 2026-04-22 12:47 | 41.29060 | -21.94012 | 33421 ft | 444 kts | 240° |
| 2026-04-22 12:48 | 41.26279 | -22.01356 | 33419 ft | 445 kts | 240° |
| 2026-04-22 12:48 | 41.23487 | -22.08714 | 33420 ft | 446 kts | 240° |
| 2026-04-22 12:49 | 41.20683 | -22.16082 | 33417 ft | 447 kts | 240° |
| 2026-04-22 12:49 | 41.17869 | -22.23461 | 33421 ft | 448 kts | 240° |
| 2026-04-22 12:50 | 41.15044 | -22.30847 | 33420 ft | 449 kts | 240° |
| 2026-04-22 12:50 | 41.12209 | -22.38241 | 33416 ft | 450 kts | 241° |
| 2026-04-22 12:51 | 41.09383 | -22.45593 | 33421 ft | 451 kts | 241° |
| 2026-04-22 12:51 | 41.06528 | -22.53001 | 33418 ft | 452 kts | 241° |
| 2026-04-22 12:52 | 41.03645 | -22.60465 | 33421 ft | 452 kts | 241° |
| 2026-04-22 12:52 | 41.00772 | -22.67882 | 33420 ft | 453 kts | 241° |
| 2026-04-22 12:53 | 40.97911 | -22.75251 | 33417 ft | 453 kts | 241° |
| 2026-04-22 12:53 | 40.95025 | -22.82665 | 33412 ft | 453 kts | 241° |
| 2026-04-22 12:54 | 40.92134 | -22.90073 | 33417 ft | 453 kts | 241° |
| 2026-04-22 12:54 | 40.89239 | -22.97472 | 33414 ft | 453 kts | 242° |
| 2026-04-22 12:55 | 40.86340 | -23.04858 | 33412 ft | 453 kts | 242° |
| 2026-04-22 12:55 | 40.83441 | -23.12227 | 33412 ft | 453 kts | 242° |
| 2026-04-22 12:56 | 40.80531 | -23.19607 | 33422 ft | 452 kts | 242° |
| 2026-04-22 12:56 | 40.77640 | -23.26921 | 33419 ft | 452 kts | 242° |
| 2026-04-22 12:57 | 40.74724 | -23.34273 | 33423 ft | 452 kts | 242° |
| 2026-04-22 12:57 | 40.71808 | -23.41616 | 33415 ft | 451 kts | 242° |
| 2026-04-22 12:58 | 40.68897 | -23.48934 | 33681 ft | 451 kts | 242° |
| 2026-04-22 12:58 | 40.67445 | -23.52573 | 34137 ft | 445 kts | 242° |
| 2026-04-22 12:58 | 40.66014 | -23.56162 | 34583 ft | 442 kts | 242° |
| 2026-04-22 12:58 | 40.64579 | -23.59751 | 34790 ft | 444 kts | 242° |
| 2026-04-22 12:59 | 40.63140 | -23.63341 | 35110 ft | 442 kts | 242° |
| 2026-04-22 12:59 | 40.61707 | -23.66910 | 35431 ft | 440 kts | 242° |
| 2026-04-22 12:59 | 40.60279 | -23.70468 | 35394 ft | 437 kts | 242° |
| 2026-04-22 13:00 | 40.57457 | -23.77490 | 35432 ft | 436 kts | 242° |
| 2026-04-22 13:00 | 40.54623 | -23.84531 | 35409 ft | 437 kts | 243° |
| 2026-04-22 13:01 | 40.51797 | -23.91533 | 35430 ft | 433 kts | 243° |
| 2026-04-22 13:01 | 40.48943 | -23.98579 | 35428 ft | 440 kts | 243° |
| 2026-04-22 13:02 | 40.46077 | -24.05632 | 35428 ft | 436 kts | 243° |
| 2026-04-22 13:02 | 40.43214 | -24.12684 | 35421 ft | 439 kts | 243° |
| 2026-04-22 13:03 | 40.40336 | -24.19739 | 35409 ft | 437 kts | 243° |
| 2026-04-22 13:03 | 40.37454 | -24.26800 | 35421 ft | 439 kts | 243° |
| 2026-04-22 13:04 | 40.34579 | -24.33817 | 35422 ft | 436 kts | 243° |
| 2026-04-22 13:04 | 40.31709 | -24.40807 | 35420 ft | 439 kts | 243° |
| 2026-04-22 13:05 | 40.28810 | -24.47849 | 35419 ft | 439 kts | 243° |
| 2026-04-22 13:05 | 40.25903 | -24.54893 | 35436 ft | 441 kts | 243° |
| 2026-04-22 13:06 | 40.22987 | -24.61950 | 35421 ft | 440 kts | 243° |
| 2026-04-22 13:06 | 40.20074 | -24.68988 | 35426 ft | 442 kts | 243° |
| 2026-04-22 13:07 | 40.17153 | -24.76029 | 35421 ft | 438 kts | 243° |
| 2026-04-22 13:07 | 40.14234 | -24.83038 | 35438 ft | 441 kts | 244° |
| 2026-04-22 13:08 | 40.11291 | -24.90097 | 35432 ft | 441 kts | 244° |
| 2026-04-22 13:08 | 40.08350 | -24.97121 | 35438 ft | 443 kts | 244° |
| 2026-04-22 13:09 | 40.05428 | -25.04088 | 35423 ft | 437 kts | 244° |
| 2026-04-22 13:09 | 40.02504 | -25.11045 | 35445 ft | 440 kts | 244° |
| 2026-04-22 13:10 | 39.99544 | -25.18085 | 35437 ft | 442 kts | 244° |
| 2026-04-22 13:10 | 39.96606 | -25.25052 | 35440 ft | 438 kts | 244° |
| 2026-04-22 13:11 | 39.93649 | -25.32052 | 35446 ft | 445 kts | 244° |
| 2026-04-22 13:11 | 39.91235 | -25.39335 | 35452 ft | 433 kts | 263° |
| 2026-04-22 13:12 | 39.91403 | -25.47127 | 35450 ft | 433 kts | 285° |
| 2026-04-22 13:12 | 39.93287 | -25.54594 | 35455 ft | 435 kts | 289° |
| 2026-04-22 13:13 | 39.95341 | -25.62007 | 35450 ft | 435 kts | 289° |
| 2026-04-22 13:13 | 39.97345 | -25.69399 | 35447 ft | 431 kts | 289° |
| 2026-04-22 13:14 | 39.99297 | -25.76826 | 35453 ft | 437 kts | 289° |
| 2026-04-22 13:14 | 40.01239 | -25.84293 | 35448 ft | 433 kts | 289° |
| 2026-04-22 13:15 | 40.03167 | -25.91771 | 35449 ft | 438 kts | 289° |
| 2026-04-22 13:15 | 40.05099 | -25.99254 | 35453 ft | 439 kts | 289° |
| 2026-04-22 13:16 | 40.07042 | -26.06795 | 35457 ft | 439 kts | 289° |
| 2026-04-22 13:16 | 40.08980 | -26.14341 | 35458 ft | 437 kts | 289° |
| 2026-04-22 13:17 | 40.10912 | -26.21900 | 35463 ft | 439 kts | 289° |
| 2026-04-22 13:17 | 40.12828 | -26.29436 | 35459 ft | 438 kts | 289° |
| 2026-04-22 13:18 | 40.14750 | -26.37005 | 35457 ft | 436 kts | 289° |
| 2026-04-22 13:18 | 40.16646 | -26.44492 | 35464 ft | 435 kts | 289° |
| 2026-04-22 13:19 | 40.18553 | -26.52053 | 35468 ft | 436 kts | 289° |
| 2026-04-22 13:19 | 40.20446 | -26.59566 | 35470 ft | 437 kts | 288° |
| 2026-04-22 13:20 | 40.22343 | -26.67137 | 35469 ft | 436 kts | 288° |
| 2026-04-22 13:20 | 40.24231 | -26.74691 | 35478 ft | 438 kts | 288° |
| 2026-04-22 13:21 | 40.26126 | -26.82272 | 35473 ft | 438 kts | 288° |
| 2026-04-22 13:21 | 40.27992 | -26.89773 | 35473 ft | 435 kts | 288° |
| 2026-04-22 13:22 | 40.29866 | -26.97335 | 35478 ft | 436 kts | 288° |
| 2026-04-22 13:22 | 40.31732 | -27.04896 | 35491 ft | 437 kts | 288° |
| 2026-04-22 13:23 | 40.33594 | -27.12460 | 35483 ft | 436 kts | 288° |
| 2026-04-22 13:23 | 40.35453 | -27.20039 | 35485 ft | 437 kts | 288° |
| 2026-04-22 13:24 | 40.37306 | -27.27614 | 35503 ft | 437 kts | 288° |
| 2026-04-22 13:24 | 40.39148 | -27.35170 | 35506 ft | 436 kts | 288° |
| 2026-04-22 13:25 | 40.40989 | -27.42746 | 35502 ft | 436 kts | 288° |
| 2026-04-22 13:25 | 40.42821 | -27.50309 | 35508 ft | 434 kts | 288° |
| 2026-04-22 13:26 | 40.44650 | -27.57887 | 35487 ft | 434 kts | 288° |
| 2026-04-22 13:26 | 40.46474 | -27.65467 | 35511 ft | 436 kts | 288° |
| 2026-04-22 13:27 | 40.48296 | -27.73067 | 35496 ft | 435 kts | 288° |
| 2026-04-22 13:27 | 40.50096 | -27.80594 | 35516 ft | 436 kts | 288° |
| 2026-04-22 13:28 | 40.51907 | -27.88195 | 35523 ft | 436 kts | 288° |
| 2026-04-22 13:28 | 40.53709 | -27.95781 | 35519 ft | 433 kts | 288° |
| 2026-04-22 13:29 | 40.55506 | -28.03369 | 35529 ft | 438 kts | 288° |
| 2026-04-22 13:29 | 40.57299 | -28.10972 | 35529 ft | 433 kts | 288° |
| 2026-04-22 13:30 | 40.58787 | -28.17293 | 35531 ft | 438 kts | 288° |
| 2026-04-22 13:30 | 40.60579 | -28.24937 | 35532 ft | 437 kts | 288° |
| 2026-04-22 13:31 | 40.62362 | -28.32566 | 35531 ft | 437 kts | 288° |
| 2026-04-22 13:31 | 40.64147 | -28.40230 | 35529 ft | 438 kts | 288° |
| 2026-04-22 13:32 | 40.65922 | -28.47874 | 35537 ft | 436 kts | 288° |
| 2026-04-22 13:32 | 40.67685 | -28.55494 | 35544 ft | 436 kts | 288° |
| 2026-04-22 13:33 | 40.69457 | -28.63175 | 35540 ft | 438 kts | 288° |
| 2026-04-22 13:33 | 40.71217 | -28.70836 | 35546 ft | 437 kts | 288° |
| 2026-04-22 13:34 | 40.72979 | -28.78529 | 35551 ft | 439 kts | 288° |
| 2026-04-22 13:34 | 40.74733 | -28.86215 | 35541 ft | 436 kts | 288° |
| 2026-04-22 13:35 | 40.76481 | -28.93901 | 35562 ft | 439 kts | 288° |
| 2026-04-22 13:35 | 40.78232 | -29.01624 | 35559 ft | 439 kts | 288° |
| 2026-04-22 13:36 | 40.79970 | -29.09321 | 35560 ft | 438 kts | 288° |
| 2026-04-22 13:36 | 40.81705 | -29.17029 | 35569 ft | 438 kts | 288° |
| 2026-04-22 13:37 | 40.83440 | -29.24761 | 35566 ft | 439 kts | 288° |
| 2026-04-22 13:37 | 40.85169 | -29.32497 | 35572 ft | 440 kts | 288° |
| 2026-04-22 13:38 | 40.86895 | -29.40245 | 35573 ft | 439 kts | 288° |
| 2026-04-22 13:38 | 40.89471 | -29.51863 | 35581 ft | 439 kts | 287° |
| 2026-04-22 13:39 | 40.91180 | -29.59604 | 35589 ft | 439 kts | 287° |
| 2026-04-22 13:39 | 40.92884 | -29.67346 | 35590 ft | 439 kts | 287° |
| 2026-04-22 13:40 | 40.94580 | -29.75085 | 35582 ft | 437 kts | 287° |
| 2026-04-22 13:40 | 40.96270 | -29.82821 | 35599 ft | 437 kts | 287° |
| 2026-04-22 13:41 | 40.97951 | -29.90544 | 35599 ft | 437 kts | 287° |
| 2026-04-22 13:41 | 40.99006 | -29.98427 | 35605 ft | 441 kts | 269° |
| 2026-04-22 13:42 | 40.97624 | -30.06340 | 35590 ft | 448 kts | 247° |
| 2026-04-22 13:42 | 40.94671 | -30.13679 | 35613 ft | 453 kts | 245° |
| 2026-04-22 13:43 | 40.91640 | -30.20993 | 35617 ft | 454 kts | 245° |
| 2026-04-22 13:43 | 40.88629 | -30.28354 | 35627 ft | 456 kts | 245° |
| 2026-04-22 13:44 | 40.85621 | -30.35784 | 35635 ft | 460 kts | 246° |
| 2026-04-22 13:44 | 40.82598 | -30.43266 | 35639 ft | 463 kts | 246° |
| 2026-04-22 13:45 | 40.79563 | -30.50759 | 35643 ft | 463 kts | 245° |
| 2026-04-22 13:45 | 40.76526 | -30.58236 | 35648 ft | 461 kts | 245° |
| 2026-04-22 13:46 | 40.73497 | -30.65671 | 35650 ft | 459 kts | 245° |
| 2026-04-22 13:46 | 40.70476 | -30.73069 | 35653 ft | 457 kts | 245° |
| 2026-04-22 13:47 | 40.67464 | -30.80427 | 35660 ft | 455 kts | 245° |
| 2026-04-22 13:47 | 40.64458 | -30.87756 | 35667 ft | 454 kts | 245° |
| 2026-04-22 13:48 | 40.61450 | -30.95070 | 35674 ft | 454 kts | 246° |
| 2026-04-22 13:48 | 40.58442 | -31.02368 | 35679 ft | 454 kts | 245° |
| 2026-04-22 13:49 | 40.55423 | -31.09671 | 35691 ft | 454 kts | 245° |
| 2026-04-22 13:49 | 40.52399 | -31.16973 | 35693 ft | 455 kts | 246° |
| 2026-04-22 13:50 | 40.49361 | -31.24287 | 35698 ft | 456 kts | 246° |
| 2026-04-22 13:50 | 40.46316 | -31.31601 | 35699 ft | 456 kts | 246° |
| 2026-04-22 13:51 | 40.43264 | -31.38915 | 35709 ft | 457 kts | 246° |
| 2026-04-22 13:51 | 40.40207 | -31.46222 | 35710 ft | 457 kts | 246° |
| 2026-04-22 13:52 | 40.37144 | -31.53527 | 35716 ft | 457 kts | 246° |
| 2026-04-22 13:52 | 40.34077 | -31.60824 | 35723 ft | 457 kts | 246° |
| 2026-04-22 13:53 | 40.31003 | -31.68118 | 35739 ft | 457 kts | 246° |
| 2026-04-22 13:53 | 40.27929 | -31.75397 | 35733 ft | 457 kts | 246° |
| 2026-04-22 13:54 | 40.24848 | -31.82673 | 35732 ft | 457 kts | 246° |
| 2026-04-22 13:54 | 40.21763 | -31.89942 | 35736 ft | 457 kts | 246° |
| 2026-04-22 13:55 | 40.18677 | -31.97197 | 35743 ft | 456 kts | 246° |
| 2026-04-22 13:55 | 40.15585 | -32.04448 | 35747 ft | 456 kts | 246° |
| 2026-04-22 13:56 | 40.12493 | -32.11683 | 35752 ft | 456 kts | 246° |
| 2026-04-22 13:56 | 40.09374 | -32.18962 | 35759 ft | 456 kts | 246° |
| 2026-04-22 13:57 | 40.06266 | -32.26199 | 35765 ft | 456 kts | 246° |
| 2026-04-22 13:57 | 40.03177 | -32.33376 | 35770 ft | 457 kts | 246° |
| 2026-04-22 13:58 | 40.00037 | -32.40653 | 35774 ft | 457 kts | 246° |
| 2026-04-22 13:58 | 39.96911 | -32.47880 | 35776 ft | 458 kts | 246° |
| 2026-04-22 13:59 | 39.93798 | -32.55061 | 35777 ft | 458 kts | 246° |
| 2026-04-22 13:59 | 39.90638 | -32.62334 | 35780 ft | 458 kts | 246° |
| 2026-04-22 14:00 | 39.87511 | -32.69513 | 35795 ft | 459 kts | 246° |
| 2026-04-22 14:00 | 39.84338 | -32.76781 | 35797 ft | 459 kts | 246° |
| 2026-04-22 14:01 | 39.81182 | -32.83993 | 35798 ft | 459 kts | 246° |
| 2026-04-22 14:01 | 39.78017 | -32.91208 | 35797 ft | 459 kts | 246° |
| 2026-04-22 14:02 | 39.74848 | -32.98415 | 35800 ft | 459 kts | 246° |
| 2026-04-22 14:02 | 39.71675 | -33.05615 | 35804 ft | 459 kts | 247° |
| 2026-04-22 14:03 | 39.68498 | -33.12808 | 35809 ft | 459 kts | 247° |
| 2026-04-22 14:03 | 39.65315 | -33.19999 | 35811 ft | 460 kts | 247° |
| 2026-04-22 14:04 | 39.62124 | -33.27190 | 35812 ft | 460 kts | 247° |
| 2026-04-22 14:04 | 39.58932 | -33.34366 | 35817 ft | 459 kts | 247° |
| 2026-04-22 14:05 | 39.55735 | -33.41539 | 35823 ft | 460 kts | 247° |
| 2026-04-22 14:06 | 39.50925 | -33.52297 | 35823 ft | 460 kts | 247° |
| 2026-04-22 14:06 | 39.47713 | -33.59461 | 35826 ft | 460 kts | 247° |
| 2026-04-22 14:07 | 39.44499 | -33.66614 | 35835 ft | 460 kts | 247° |
| 2026-04-22 14:07 | 39.41820 | -33.72563 | 35834 ft | 460 kts | 247° |
| 2026-04-22 14:08 | 39.38595 | -33.79711 | 35839 ft | 460 kts | 247° |
| 2026-04-22 14:08 | 39.35367 | -33.86847 | 35852 ft | 460 kts | 247° |
| 2026-04-22 14:09 | 39.32130 | -33.93987 | 35846 ft | 460 kts | 247° |
| 2026-04-22 14:09 | 39.28869 | -34.01162 | 35858 ft | 460 kts | 247° |
| 2026-04-22 14:10 | 39.25643 | -34.08247 | 35864 ft | 461 kts | 247° |
| 2026-04-22 14:10 | 39.22374 | -34.15410 | 35860 ft | 460 kts | 247° |
| 2026-04-22 14:11 | 39.19121 | -34.22520 | 35865 ft | 460 kts | 247° |
| 2026-04-22 14:11 | 39.15862 | -34.29629 | 35866 ft | 460 kts | 247° |
| 2026-04-22 14:12 | 39.12602 | -34.36723 | 35866 ft | 460 kts | 247° |
| 2026-04-22 14:12 | 39.09334 | -34.43818 | 35872 ft | 460 kts | 247° |
| 2026-04-22 14:13 | 39.06068 | -34.50893 | 35876 ft | 460 kts | 247° |
| 2026-04-22 14:13 | 39.02793 | -34.57973 | 35877 ft | 460 kts | 247° |
| 2026-04-22 14:14 | 38.99514 | -34.65046 | 35884 ft | 461 kts | 247° |
| 2026-04-22 14:14 | 38.96226 | -34.72122 | 35902 ft | 461 kts | 247° |
| 2026-04-22 14:15 | 38.92928 | -34.79204 | 35884 ft | 462 kts | 247° |
| 2026-04-22 14:15 | 38.89622 | -34.86286 | 35900 ft | 463 kts | 247° |
| 2026-04-22 14:16 | 38.86307 | -34.93373 | 35900 ft | 463 kts | 248° |
| 2026-04-22 14:16 | 38.82988 | -35.00451 | 35903 ft | 463 kts | 248° |
| 2026-04-22 14:17 | 38.79662 | -35.07529 | 35906 ft | 464 kts | 248° |
| 2026-04-22 14:17 | 38.76333 | -35.14597 | 35913 ft | 464 kts | 248° |
| 2026-04-22 14:18 | 38.73011 | -35.21638 | 35926 ft | 467 kts | 248° |
| 2026-04-22 14:18 | 38.69600 | -35.28865 | 35934 ft | 475 kts | 248° |
| 2026-04-22 14:19 | 38.66152 | -35.36145 | 35934 ft | 482 kts | 248° |
| 2026-04-22 14:19 | 38.62667 | -35.43475 | 35936 ft | 487 kts | 248° |
| 2026-04-22 14:20 | 38.57341 | -35.54639 | 35936 ft | 489 kts | 248° |
| 2026-04-22 14:20 | 38.53794 | -35.62054 | 35940 ft | 489 kts | 248° |
| 2026-04-22 14:21 | 38.48478 | -35.73139 | 35939 ft | 487 kts | 248° |
| 2026-04-22 14:22 | 38.43179 | -35.84153 | 35943 ft | 484 kts | 248° |
| 2026-04-22 14:23 | 38.37899 | -35.95097 | 35956 ft | 482 kts | 248° |
| 2026-04-22 14:23 | 38.34379 | -36.02372 | 35956 ft | 482 kts | 248° |
| 2026-04-22 14:24 | 38.30859 | -36.09631 | 35958 ft | 482 kts | 248° |
| 2026-04-22 14:24 | 38.27335 | -36.16883 | 35964 ft | 482 kts | 248° |
| 2026-04-22 14:25 | 38.23801 | -36.24137 | 35971 ft | 482 kts | 248° |
| 2026-04-22 14:25 | 38.20259 | -36.31391 | 35973 ft | 483 kts | 248° |
| 2026-04-22 14:26 | 38.16708 | -36.38647 | 35976 ft | 484 kts | 248° |
| 2026-04-22 14:26 | 38.13148 | -36.45903 | 35978 ft | 484 kts | 248° |
| 2026-04-22 14:27 | 38.09581 | -36.53160 | 35989 ft | 484 kts | 248° |
| 2026-04-22 14:27 | 38.06010 | -36.60407 | 35987 ft | 485 kts | 247° |
| 2026-04-22 14:28 | 38.02429 | -36.67659 | 35984 ft | 484 kts | 247° |
| 2026-04-22 14:28 | 37.98846 | -36.74899 | 35981 ft | 484 kts | 247° |
| 2026-04-22 14:29 | 37.95262 | -36.82124 | 35988 ft | 484 kts | 247° |
| 2026-04-22 14:29 | 37.91677 | -36.89336 | 35990 ft | 484 kts | 247° |
| 2026-04-22 14:30 | 37.88088 | -36.96541 | 35995 ft | 484 kts | 247° |
| 2026-04-22 14:30 | 37.84493 | -37.03741 | 35995 ft | 484 kts | 247° |
| 2026-04-22 14:31 | 37.80896 | -37.10931 | 36000 ft | 483 kts | 246° |
| 2026-04-22 14:31 | 37.77297 | -37.18109 | 35999 ft | 483 kts | 246° |
| 2026-04-22 14:32 | 37.73690 | -37.25285 | 36007 ft | 483 kts | 246° |
| 2026-04-22 14:32 | 37.70103 | -37.32408 | 36002 ft | 483 kts | 246° |
| 2026-04-22 14:33 | 37.66468 | -37.39611 | 36005 ft | 483 kts | 246° |
| 2026-04-22 14:33 | 37.62855 | -37.46752 | 36007 ft | 483 kts | 246° |
| 2026-04-22 14:34 | 37.59236 | -37.53891 | 36010 ft | 483 kts | 246° |
| 2026-04-22 14:34 | 37.55615 | -37.61019 | 36018 ft | 483 kts | 246° |
| 2026-04-22 14:35 | 37.51992 | -37.68134 | 36014 ft | 482 kts | 245° |
| 2026-04-22 14:35 | 37.48364 | -37.75245 | 36012 ft | 482 kts | 245° |
| 2026-04-22 14:36 | 37.44737 | -37.82339 | 36012 ft | 482 kts | 245° |
| 2026-04-22 14:36 | 37.41108 | -37.89422 | 36015 ft | 481 kts | 245° |
| 2026-04-22 14:37 | 37.37475 | -37.96496 | 36017 ft | 481 kts | 245° |
| 2026-04-22 14:37 | 37.33842 | -38.03556 | 36018 ft | 481 kts | 245° |
| 2026-04-22 14:38 | 37.30206 | -38.10609 | 36013 ft | 481 kts | 245° |
| 2026-04-22 14:38 | 37.26565 | -38.17654 | 36029 ft | 481 kts | 245° |
| 2026-04-22 14:39 | 37.22920 | -38.24692 | 36021 ft | 481 kts | 245° |
| 2026-04-22 14:39 | 37.19274 | -38.31718 | 36015 ft | 481 kts | 245° |
| 2026-04-22 14:40 | 37.13790 | -38.42258 | 36030 ft | 481 kts | 244° |
| 2026-04-22 14:40 | 37.10131 | -38.49272 | 36028 ft | 481 kts | 244° |
| 2026-04-22 14:41 | 37.06464 | -38.56287 | 36028 ft | 481 kts | 244° |
| 2026-04-22 14:41 | 37.02795 | -38.63290 | 36025 ft | 481 kts | 244° |
| 2026-04-22 14:42 | 36.99125 | -38.70281 | 36029 ft | 481 kts | 244° |
| 2026-04-22 14:42 | 36.95446 | -38.77274 | 36032 ft | 481 kts | 244° |
| 2026-04-22 14:43 | 36.91767 | -38.84253 | 36025 ft | 481 kts | 244° |
| 2026-04-22 14:43 | 36.88680 | -38.90097 | 36025 ft | 481 kts | 244° |
| 2026-04-22 14:44 | 36.84995 | -38.97061 | 36028 ft | 480 kts | 244° |
| 2026-04-22 14:44 | 36.81306 | -39.04018 | 36028 ft | 480 kts | 244° |
| 2026-04-22 14:45 | 36.77618 | -39.10959 | 36029 ft | 480 kts | 243° |
| 2026-04-22 14:45 | 36.73922 | -39.17899 | 36031 ft | 480 kts | 243° |
| 2026-04-22 14:46 | 36.70229 | -39.24822 | 36028 ft | 479 kts | 243° |
| 2026-04-22 14:46 | 36.66534 | -39.31733 | 36036 ft | 479 kts | 243° |
| 2026-04-22 14:47 | 36.62836 | -39.38636 | 36029 ft | 479 kts | 243° |
| 2026-04-22 14:47 | 36.59137 | -39.45527 | 36026 ft | 478 kts | 243° |
| 2026-04-22 14:48 | 36.55439 | -39.52401 | 36026 ft | 478 kts | 243° |
| 2026-04-22 14:48 | 36.51740 | -39.59263 | 36025 ft | 478 kts | 243° |
| 2026-04-22 14:49 | 36.48038 | -39.66119 | 36046 ft | 478 kts | 243° |
| 2026-04-22 14:49 | 36.44328 | -39.72975 | 36023 ft | 478 kts | 242° |
| 2026-04-22 14:50 | 36.40621 | -39.79809 | 36029 ft | 477 kts | 242° |
| 2026-04-22 14:50 | 36.36910 | -39.86639 | 36037 ft | 477 kts | 242° |
| 2026-04-22 14:51 | 36.33202 | -39.93449 | 36022 ft | 476 kts | 242° |
| 2026-04-22 14:51 | 36.29490 | -40.00253 | 36031 ft | 476 kts | 242° |
| 2026-04-22 14:52 | 36.25774 | -40.07052 | 36030 ft | 476 kts | 242° |
| 2026-04-22 14:52 | 36.22057 | -40.13840 | 36031 ft | 476 kts | 242° |
| 2026-04-22 14:53 | 36.18335 | -40.20622 | 36035 ft | 476 kts | 242° |
| 2026-04-22 14:53 | 36.14608 | -40.27401 | 36034 ft | 476 kts | 241° |
| 2026-04-22 14:54 | 36.10877 | -40.34171 | 36029 ft | 476 kts | 241° |
| 2026-04-22 14:54 | 36.07139 | -40.40944 | 36038 ft | 477 kts | 241° |
| 2026-04-22 14:55 | 36.03399 | -40.47705 | 36038 ft | 477 kts | 241° |
| 2026-04-22 14:55 | 35.99648 | -40.54473 | 36035 ft | 477 kts | 241° |
| 2026-04-22 14:56 | 35.95896 | -40.61229 | 36037 ft | 477 kts | 240° |
| 2026-04-22 14:56 | 35.92113 | -40.68028 | 36043 ft | 477 kts | 240° |
| 2026-04-22 14:57 | 35.88378 | -40.74727 | 36045 ft | 477 kts | 240° |
| 2026-04-22 14:57 | 35.84611 | -40.81471 | 36047 ft | 477 kts | 240° |
| 2026-04-22 14:58 | 35.80816 | -40.88252 | 36059 ft | 477 kts | 240° |
| 2026-04-22 14:58 | 35.77043 | -40.94981 | 36059 ft | 477 kts | 240° |
| 2026-04-22 14:59 | 35.73261 | -41.01711 | 36055 ft | 478 kts | 240° |
| 2026-04-22 14:59 | 35.69481 | -41.08427 | 36057 ft | 477 kts | 240° |
| 2026-04-22 15:00 | 35.65698 | -41.15133 | 36055 ft | 477 kts | 240° |
| 2026-04-22 15:00 | 35.61912 | -41.21832 | 36060 ft | 477 kts | 240° |
| 2026-04-22 15:01 | 35.58123 | -41.28524 | 36059 ft | 477 kts | 240° |
| 2026-04-22 15:01 | 35.54333 | -41.35205 | 36056 ft | 477 kts | 240° |
| 2026-04-22 15:02 | 35.50539 | -41.41879 | 36062 ft | 476 kts | 240° |
| 2026-04-22 15:02 | 35.46746 | -41.48541 | 36061 ft | 476 kts | 239° |
| 2026-04-22 15:03 | 35.42944 | -41.55204 | 36062 ft | 476 kts | 239° |
| 2026-04-22 15:03 | 35.39139 | -41.61861 | 36069 ft | 476 kts | 239° |
| 2026-04-22 15:04 | 35.35332 | -41.68507 | 36061 ft | 476 kts | 239° |
| 2026-04-22 15:04 | 35.31524 | -41.75144 | 36067 ft | 476 kts | 239° |
| 2026-04-22 15:05 | 35.27709 | -41.81779 | 36076 ft | 476 kts | 239° |
| 2026-04-22 15:05 | 35.23897 | -41.88398 | 36070 ft | 476 kts | 239° |
| 2026-04-22 15:06 | 35.20076 | -41.95018 | 36074 ft | 476 kts | 239° |
| 2026-04-22 15:06 | 35.16256 | -42.01624 | 36071 ft | 476 kts | 239° |
| 2026-04-22 15:07 | 35.12432 | -42.08226 | 36072 ft | 476 kts | 239° |
| 2026-04-22 15:07 | 35.08605 | -42.14821 | 36071 ft | 476 kts | 239° |
| 2026-04-22 15:08 | 35.04775 | -42.21407 | 36074 ft | 476 kts | 239° |
| 2026-04-22 15:08 | 35.00944 | -42.27984 | 36077 ft | 476 kts | 239° |
| 2026-04-22 15:09 | 34.97109 | -42.34556 | 36078 ft | 475 kts | 239° |
| 2026-04-22 15:09 | 34.93271 | -42.41120 | 36079 ft | 475 kts | 239° |
| 2026-04-22 15:10 | 34.89430 | -42.47676 | 36074 ft | 475 kts | 239° |
| 2026-04-22 15:10 | 34.85590 | -42.54220 | 36076 ft | 475 kts | 238° |
| 2026-04-22 15:11 | 34.81744 | -42.60762 | 36080 ft | 475 kts | 238° |
| 2026-04-22 15:11 | 34.77895 | -42.67296 | 36081 ft | 475 kts | 238° |
| 2026-04-22 15:12 | 34.74041 | -42.73827 | 36079 ft | 475 kts | 238° |
| 2026-04-22 15:12 | 34.70189 | -42.80341 | 36082 ft | 475 kts | 238° |
| 2026-04-22 15:13 | 34.66332 | -42.86854 | 36078 ft | 475 kts | 238° |
| 2026-04-22 15:13 | 34.62472 | -42.93359 | 36078 ft | 475 kts | 238° |
| 2026-04-22 15:14 | 34.58610 | -42.99855 | 36079 ft | 474 kts | 238° |
| 2026-04-22 15:14 | 34.54747 | -43.06343 | 36077 ft | 474 kts | 238° |
| 2026-04-22 15:15 | 34.50881 | -43.12823 | 36079 ft | 474 kts | 238° |
| 2026-04-22 15:15 | 34.47012 | -43.19295 | 36077 ft | 474 kts | 238° |
| 2026-04-22 15:16 | 34.43139 | -43.25763 | 36082 ft | 474 kts | 237° |
| 2026-04-22 15:16 | 34.39268 | -43.32217 | 36078 ft | 474 kts | 237° |
| 2026-04-22 15:17 | 34.35393 | -43.38665 | 36078 ft | 473 kts | 237° |
| 2026-04-22 15:17 | 34.31522 | -43.45095 | 36076 ft | 473 kts | 237° |
| 2026-04-22 15:18 | 34.27642 | -43.51528 | 36074 ft | 473 kts | 237° |
| 2026-04-22 15:18 | 34.24393 | -43.56907 | 36084 ft | 473 kts | 237° |
| 2026-04-22 15:19 | 34.20512 | -43.63321 | 36073 ft | 472 kts | 237° |
| 2026-04-22 15:19 | 34.16629 | -43.69726 | 36065 ft | 472 kts | 237° |
| 2026-04-22 15:20 | 34.12744 | -43.76124 | 36076 ft | 472 kts | 237° |
| 2026-04-22 15:20 | 34.08855 | -43.82518 | 36071 ft | 472 kts | 236° |
| 2026-04-22 15:21 | 34.04966 | -43.88900 | 36072 ft | 472 kts | 236° |
| 2026-04-22 15:21 | 34.01069 | -43.95284 | 36071 ft | 472 kts | 236° |
| 2026-04-22 15:22 | 33.97168 | -44.01662 | 36069 ft | 473 kts | 236° |
| 2026-04-22 15:22 | 33.93266 | -44.08031 | 36072 ft | 473 kts | 236° |
| 2026-04-22 15:23 | 33.89359 | -44.14397 | 36065 ft | 473 kts | 236° |
| 2026-04-22 15:23 | 33.85447 | -44.20760 | 36063 ft | 473 kts | 236° |
| 2026-04-22 15:24 | 33.81530 | -44.27121 | 36066 ft | 473 kts | 236° |
| 2026-04-22 15:24 | 33.77610 | -44.33474 | 36060 ft | 473 kts | 236° |
| 2026-04-22 15:25 | 33.73690 | -44.39817 | 36055 ft | 473 kts | 236° |
| 2026-04-22 15:25 | 33.69765 | -44.46157 | 36055 ft | 473 kts | 236° |
| 2026-04-22 15:26 | 33.65841 | -44.52485 | 36059 ft | 472 kts | 235° |
| 2026-04-22 15:26 | 33.61913 | -44.58807 | 36059 ft | 472 kts | 235° |
| 2026-04-22 15:27 | 33.57985 | -44.65119 | 36056 ft | 472 kts | 235° |
| 2026-04-22 15:27 | 33.54054 | -44.71424 | 36062 ft | 472 kts | 235° |
| 2026-04-22 15:28 | 33.50120 | -44.77725 | 36056 ft | 472 kts | 235° |
| 2026-04-22 15:28 | 33.46187 | -44.84012 | 36055 ft | 472 kts | 235° |
| 2026-04-22 15:29 | 33.42251 | -44.90293 | 36054 ft | 471 kts | 235° |
| 2026-04-22 15:30 | 33.36343 | -44.99702 | 36053 ft | 471 kts | 235° |
| 2026-04-22 15:30 | 33.32405 | -45.05959 | 36053 ft | 471 kts | 235° |
| 2026-04-22 15:31 | 33.28468 | -45.12205 | 36047 ft | 471 kts | 235° |
| 2026-04-22 15:31 | 33.24526 | -45.18448 | 36050 ft | 470 kts | 235° |
| 2026-04-22 15:32 | 33.20580 | -45.24686 | 36050 ft | 470 kts | 235° |
| 2026-04-22 15:32 | 33.16641 | -45.30904 | 36049 ft | 470 kts | 235° |
| 2026-04-22 15:33 | 33.12695 | -45.37121 | 36046 ft | 469 kts | 235° |
| 2026-04-22 15:33 | 33.08752 | -45.43325 | 36043 ft | 469 kts | 234° |
| 2026-04-22 15:34 | 33.04808 | -45.49518 | 36043 ft | 469 kts | 234° |
| 2026-04-22 15:34 | 33.00862 | -45.55705 | 36047 ft | 469 kts | 234° |
| 2026-04-22 15:35 | 32.97583 | -45.60837 | 36044 ft | 468 kts | 234° |
| 2026-04-22 15:35 | 32.92969 | -45.68048 | 36041 ft | 468 kts | 234° |
| 2026-04-22 15:36 | 32.89021 | -45.74207 | 36045 ft | 468 kts | 234° |
| 2026-04-22 15:36 | 32.85073 | -45.80356 | 36043 ft | 468 kts | 234° |
| 2026-04-22 15:37 | 32.81123 | -45.86497 | 36041 ft | 467 kts | 234° |
| 2026-04-22 15:37 | 32.77174 | -45.92627 | 36040 ft | 467 kts | 234° |
| 2026-04-22 15:38 | 32.73224 | -45.98749 | 36040 ft | 467 kts | 234° |
| 2026-04-22 15:38 | 32.67302 | -46.07908 | 36040 ft | 466 kts | 234° |
| 2026-04-22 15:39 | 32.63401 | -46.13926 | 36019 ft | 448 kts | 234° |
| 2026-04-22 15:39 | 32.59669 | -46.19671 | 36023 ft | 436 kts | 234° |
| 2026-04-22 15:40 | 32.55972 | -46.25364 | 36035 ft | 435 kts | 234° |
| 2026-04-22 15:40 | 32.52273 | -46.31051 | 36036 ft | 435 kts | 234° |
| 2026-04-22 15:41 | 32.48570 | -46.36732 | 36036 ft | 436 kts | 234° |
| 2026-04-22 15:41 | 32.44863 | -46.42411 | 36036 ft | 436 kts | 234° |
| 2026-04-22 15:42 | 32.41152 | -46.48086 | 36031 ft | 436 kts | 234° |
| 2026-04-22 15:42 | 32.37444 | -46.53749 | 36033 ft | 436 kts | 234° |
| 2026-04-22 15:43 | 32.33730 | -46.59411 | 36030 ft | 435 kts | 234° |
| 2026-04-22 15:43 | 32.30016 | -46.65066 | 36028 ft | 435 kts | 234° |
| 2026-04-22 15:44 | 32.26302 | -46.70713 | 36034 ft | 435 kts | 234° |
| 2026-04-22 15:44 | 32.22588 | -46.76349 | 36030 ft | 434 kts | 234° |
| 2026-04-22 15:45 | 32.18872 | -46.81981 | 36027 ft | 434 kts | 234° |
| 2026-04-22 15:45 | 32.15188 | -46.87558 | 36026 ft | 433 kts | 234° |
| 2026-04-22 15:46 | 32.11458 | -46.93195 | 36039 ft | 433 kts | 234° |
| 2026-04-22 15:46 | 32.07777 | -46.98750 | 36019 ft | 432 kts | 234° |
| 2026-04-22 15:47 | 32.04075 | -47.04328 | 36020 ft | 432 kts | 234° |
| 2026-04-22 15:47 | 32.00373 | -47.09897 | 36034 ft | 431 kts | 234° |
| 2026-04-22 15:48 | 31.96673 | -47.15456 | 36034 ft | 431 kts | 234° |
| 2026-04-22 15:48 | 31.92972 | -47.21008 | 36020 ft | 431 kts | 234° |
| 2026-04-22 15:49 | 31.89272 | -47.26551 | 36016 ft | 430 kts | 234° |
| 2026-04-22 15:49 | 31.85569 | -47.32090 | 36014 ft | 430 kts | 234° |
| 2026-04-22 15:50 | 31.81865 | -47.37623 | 36028 ft | 430 kts | 234° |
| 2026-04-22 15:50 | 31.78183 | -47.43114 | 36030 ft | 430 kts | 234° |
| 2026-04-22 15:51 | 31.74478 | -47.48632 | 36025 ft | 430 kts | 234° |
| 2026-04-22 15:51 | 31.70767 | -47.54151 | 36026 ft | 430 kts | 234° |
| 2026-04-22 15:52 | 31.67056 | -47.59663 | 36023 ft | 430 kts | 234° |
| 2026-04-22 15:52 | 31.63345 | -47.65166 | 36027 ft | 430 kts | 234° |
| 2026-04-22 15:53 | 31.59634 | -47.70661 | 36023 ft | 429 kts | 234° |
| 2026-04-22 15:53 | 31.55924 | -47.76147 | 36022 ft | 429 kts | 234° |
| 2026-04-22 15:54 | 31.52215 | -47.81624 | 36020 ft | 429 kts | 234° |
| 2026-04-22 15:54 | 31.48506 | -47.87092 | 36021 ft | 428 kts | 234° |
| 2026-04-22 15:55 | 31.44821 | -47.92519 | 36016 ft | 428 kts | 234° |
| 2026-04-22 15:55 | 31.41109 | -47.97976 | 36021 ft | 428 kts | 234° |
| 2026-04-22 15:56 | 31.37374 | -48.03460 | 36021 ft | 428 kts | 234° |
| 2026-04-22 15:56 | 31.33651 | -48.08919 | 36019 ft | 429 kts | 234° |
| 2026-04-22 15:57 | 31.29954 | -48.14332 | 36019 ft | 429 kts | 234° |
| 2026-04-22 15:57 | 31.26219 | -48.19792 | 36020 ft | 430 kts | 234° |
| 2026-04-22 15:58 | 31.22484 | -48.25246 | 36020 ft | 430 kts | 234° |
| 2026-04-22 15:58 | 31.18751 | -48.30688 | 36019 ft | 429 kts | 234° |
| 2026-04-22 15:59 | 31.15016 | -48.36125 | 36019 ft | 429 kts | 234° |
| 2026-04-22 15:59 | 31.11919 | -48.40628 | 36020 ft | 427 kts | 234° |
| 2026-04-22 16:00 | 31.08198 | -48.46031 | 36018 ft | 426 kts | 234° |
| 2026-04-22 16:00 | 31.04491 | -48.51407 | 36019 ft | 425 kts | 234° |
| 2026-04-22 16:01 | 31.00790 | -48.56766 | 36016 ft | 424 kts | 234° |
| 2026-04-22 16:01 | 30.97096 | -48.62110 | 36022 ft | 423 kts | 234° |
| 2026-04-22 16:02 | 30.93407 | -48.67438 | 36019 ft | 422 kts | 234° |
| 2026-04-22 16:02 | 30.89726 | -48.72747 | 36020 ft | 421 kts | 234° |
| 2026-04-22 16:03 | 30.86041 | -48.78055 | 36023 ft | 420 kts | 234° |
| 2026-04-22 16:03 | 30.82388 | -48.83308 | 36015 ft | 420 kts | 234° |
| 2026-04-22 16:04 | 30.78713 | -48.88588 | 36018 ft | 420 kts | 234° |
| 2026-04-22 16:04 | 30.75036 | -48.93859 | 36020 ft | 420 kts | 234° |
| 2026-04-22 16:05 | 30.71348 | -48.99142 | 36026 ft | 421 kts | 234° |
| 2026-04-22 16:05 | 30.67661 | -49.04420 | 36019 ft | 421 kts | 234° |
| 2026-04-22 16:06 | 30.63962 | -49.09706 | 36017 ft | 422 kts | 233° |
| 2026-04-22 16:06 | 30.60258 | -49.14991 | 36017 ft | 422 kts | 233° |
| 2026-04-22 16:07 | 30.56552 | -49.20272 | 36017 ft | 422 kts | 233° |
| 2026-04-22 16:07 | 30.52860 | -49.25526 | 36019 ft | 423 kts | 233° |
| 2026-04-22 16:08 | 30.49140 | -49.30812 | 36015 ft | 423 kts | 233° |
| 2026-04-22 16:08 | 30.45415 | -49.36100 | 36019 ft | 424 kts | 233° |
| 2026-04-22 16:09 | 30.41678 | -49.41396 | 36017 ft | 425 kts | 233° |
| 2026-04-22 16:09 | 30.37937 | -49.46691 | 36017 ft | 425 kts | 233° |
| 2026-04-22 16:10 | 30.34187 | -49.51992 | 36013 ft | 426 kts | 233° |
| 2026-04-22 16:10 | 30.30429 | -49.57297 | 36015 ft | 426 kts | 233° |
| 2026-04-22 16:11 | 30.26665 | -49.62603 | 36012 ft | 427 kts | 233° |
| 2026-04-22 16:11 | 30.22893 | -49.67914 | 36014 ft | 427 kts | 233° |
| 2026-04-22 16:12 | 30.19115 | -49.73225 | 36011 ft | 428 kts | 233° |
| 2026-04-22 16:12 | 30.15336 | -49.78533 | 36016 ft | 428 kts | 233° |
| 2026-04-22 16:13 | 30.11546 | -49.83848 | 36011 ft | 429 kts | 233° |
| 2026-04-22 16:13 | 30.07776 | -49.89129 | 36017 ft | 429 kts | 233° |
| 2026-04-22 16:14 | 30.03954 | -49.94475 | 36015 ft | 429 kts | 233° |
| 2026-04-22 16:14 | 29.99776 | -49.99368 | 36019 ft | 434 kts | 223° |
| 2026-04-22 16:15 | 29.94799 | -50.03382 | 36014 ft | 440 kts | 214° |
| 2026-04-22 16:15 | 29.89426 | -50.06779 | 36013 ft | 441 kts | 213° |
| 2026-04-22 16:16 | 29.84010 | -50.10133 | 36016 ft | 442 kts | 213° |
| 2026-04-22 16:16 | 29.78593 | -50.13511 | 36015 ft | 442 kts | 213° |
| 2026-04-22 16:17 | 29.73191 | -50.16902 | 36015 ft | 443 kts | 213° |
| 2026-04-22 16:17 | 29.67781 | -50.20303 | 36015 ft | 443 kts | 213° |
| 2026-04-22 16:18 | 29.62367 | -50.23703 | 36014 ft | 443 kts | 213° |
| 2026-04-22 16:18 | 29.56951 | -50.27101 | 36016 ft | 444 kts | 213° |
| 2026-04-22 16:19 | 29.51531 | -50.30495 | 36014 ft | 444 kts | 214° |
| 2026-04-22 16:19 | 29.46147 | -50.33863 | 36017 ft | 443 kts | 214° |
| 2026-04-22 16:20 | 29.40727 | -50.37250 | 36015 ft | 443 kts | 214° |
| 2026-04-22 16:20 | 29.35307 | -50.40632 | 36017 ft | 443 kts | 214° |
| 2026-04-22 16:21 | 29.29893 | -50.44006 | 36016 ft | 443 kts | 213° |
| 2026-04-22 16:21 | 29.24472 | -50.47381 | 36019 ft | 443 kts | 214° |
| 2026-04-22 16:22 | 29.16340 | -50.52436 | 36017 ft | 443 kts | 213° |
| 2026-04-22 16:23 | 29.08210 | -50.57480 | 36016 ft | 443 kts | 213° |
| 2026-04-22 16:23 | 29.02780 | -50.60844 | 36021 ft | 443 kts | 213° |
| 2026-04-22 16:24 | 28.94637 | -50.65881 | 36016 ft | 444 kts | 213° |
| 2026-04-22 16:25 | 28.89202 | -50.69238 | 36026 ft | 444 kts | 213° |
| 2026-04-22 16:25 | 28.81041 | -50.74271 | 36022 ft | 445 kts | 213° |
| 2026-04-22 16:26 | 28.75589 | -50.77628 | 36013 ft | 445 kts | 213° |
| 2026-04-22 16:26 | 28.70133 | -50.80984 | 36022 ft | 446 kts | 213° |
| 2026-04-22 16:27 | 28.64672 | -50.84339 | 36018 ft | 446 kts | 213° |
| 2026-04-22 16:27 | 28.59199 | -50.87697 | 36022 ft | 447 kts | 213° |
| 2026-04-22 16:28 | 28.53720 | -50.91055 | 36020 ft | 448 kts | 213° |
| 2026-04-22 16:28 | 28.48234 | -50.94413 | 36028 ft | 448 kts | 213° |
| 2026-04-22 16:29 | 28.42740 | -50.97772 | 36022 ft | 449 kts | 213° |
| 2026-04-22 16:29 | 28.37197 | -51.01157 | 36028 ft | 449 kts | 213° |
| 2026-04-22 16:30 | 28.31694 | -51.04514 | 36030 ft | 450 kts | 213° |
| 2026-04-22 16:30 | 28.26180 | -51.07873 | 36018 ft | 450 kts | 213° |
| 2026-04-22 16:31 | 28.20666 | -51.11228 | 36030 ft | 450 kts | 213° |
| 2026-04-22 16:31 | 28.15151 | -51.14580 | 36032 ft | 450 kts | 213° |
| 2026-04-22 16:32 | 28.09635 | -51.17928 | 36026 ft | 450 kts | 213° |
| 2026-04-22 16:32 | 28.04124 | -51.21270 | 36029 ft | 449 kts | 213° |
| 2026-04-22 16:33 | 27.98609 | -51.24610 | 36027 ft | 449 kts | 213° |
| 2026-04-22 16:33 | 27.93100 | -51.27942 | 36027 ft | 449 kts | 213° |
| 2026-04-22 16:34 | 27.87588 | -51.31273 | 36029 ft | 449 kts | 213° |
| 2026-04-22 16:34 | 27.82080 | -51.34598 | 36087 ft | 447 kts | 213° |
| 2026-04-22 16:35 | 27.76698 | -51.37829 | 36027 ft | 430 kts | 213° |
| 2026-04-22 16:35 | 27.71426 | -51.40998 | 36035 ft | 429 kts | 213° |
| 2026-04-22 16:36 | 27.66149 | -51.44181 | 36033 ft | 431 kts | 213° |
| 2026-04-22 16:36 | 27.60846 | -51.47376 | 36027 ft | 433 kts | 213° |
| 2026-04-22 16:37 | 27.55521 | -51.50574 | 36031 ft | 435 kts | 213° |
| 2026-04-22 16:37 | 27.50126 | -51.53813 | 36042 ft | 444 kts | 213° |
| 2026-04-22 16:38 | 27.44638 | -51.57101 | 36038 ft | 448 kts | 213° |
| 2026-04-22 16:38 | 27.39120 | -51.60398 | 36035 ft | 449 kts | 213° |
| 2026-04-22 16:39 | 27.33592 | -51.63698 | 36033 ft | 449 kts | 213° |
| 2026-04-22 16:39 | 27.28075 | -51.66989 | 36029 ft | 449 kts | 213° |
| 2026-04-22 16:40 | 27.22568 | -51.70271 | 36030 ft | 447 kts | 213° |
| 2026-04-22 16:41 | 27.14333 | -51.75173 | 36030 ft | 446 kts | 213° |
| 2026-04-22 16:41 | 27.08859 | -51.78427 | 36031 ft | 445 kts | 213° |
| 2026-04-22 16:42 | 27.03397 | -51.81671 | 36030 ft | 444 kts | 213° |
| 2026-04-22 16:42 | 26.98858 | -51.84363 | 36032 ft | 444 kts | 213° |
| 2026-04-22 16:43 | 26.93395 | -51.87601 | 36034 ft | 444 kts | 213° |
| 2026-04-22 16:43 | 26.87932 | -51.90835 | 36035 ft | 444 kts | 214° |
| 2026-04-22 16:44 | 26.82466 | -51.94066 | 36034 ft | 444 kts | 214° |
| 2026-04-22 16:44 | 26.76997 | -51.97297 | 36036 ft | 444 kts | 214° |
| 2026-04-22 16:45 | 26.71529 | -52.00522 | 36035 ft | 444 kts | 214° |
| 2026-04-22 16:45 | 26.66064 | -52.03743 | 36037 ft | 444 kts | 214° |
| 2026-04-22 16:46 | 26.60559 | -52.06983 | 36034 ft | 444 kts | 214° |
| 2026-04-22 16:46 | 26.55099 | -52.10194 | 36033 ft | 444 kts | 214° |
| 2026-04-22 16:47 | 26.49638 | -52.13402 | 36036 ft | 443 kts | 214° |
| 2026-04-22 16:47 | 26.44216 | -52.16584 | 36038 ft | 443 kts | 214° |
| 2026-04-22 16:48 | 26.38732 | -52.19798 | 36034 ft | 442 kts | 214° |
| 2026-04-22 16:48 | 26.33286 | -52.22987 | 36031 ft | 442 kts | 214° |
| 2026-04-22 16:49 | 26.27838 | -52.26174 | 36032 ft | 442 kts | 214° |
| 2026-04-22 16:49 | 26.22396 | -52.29353 | 36035 ft | 441 kts | 214° |
| 2026-04-22 16:50 | 26.16956 | -52.32528 | 36034 ft | 441 kts | 214° |
| 2026-04-22 16:50 | 26.11521 | -52.35697 | 36037 ft | 441 kts | 214° |
| 2026-04-22 16:51 | 26.06089 | -52.38860 | 36033 ft | 440 kts | 214° |
| 2026-04-22 16:51 | 26.00658 | -52.42020 | 36032 ft | 440 kts | 215° |
| 2026-04-22 16:52 | 25.95234 | -52.45172 | 36035 ft | 440 kts | 215° |
| 2026-04-22 16:52 | 25.89807 | -52.48323 | 36037 ft | 440 kts | 215° |
| 2026-04-22 16:53 | 25.84388 | -52.51466 | 36036 ft | 439 kts | 215° |
| 2026-04-22 16:53 | 25.78976 | -52.54601 | 36036 ft | 439 kts | 215° |
| 2026-04-22 16:54 | 25.73563 | -52.57735 | 36040 ft | 438 kts | 215° |
| 2026-04-22 16:54 | 25.68158 | -52.60859 | 36046 ft | 438 kts | 215° |
| 2026-04-22 16:55 | 25.62755 | -52.63980 | 36036 ft | 437 kts | 216° |
| 2026-04-22 16:55 | 25.57364 | -52.67090 | 36034 ft | 437 kts | 216° |
| 2026-04-22 16:56 | 25.51970 | -52.70200 | 36034 ft | 436 kts | 216° |
| 2026-04-22 16:56 | 25.46589 | -52.73298 | 36035 ft | 436 kts | 216° |
| 2026-04-22 16:57 | 25.41217 | -52.76388 | 36033 ft | 435 kts | 216° |
| 2026-04-22 16:57 | 25.35847 | -52.79474 | 36035 ft | 434 kts | 216° |
| 2026-04-22 16:58 | 25.31391 | -52.82033 | 36031 ft | 434 kts | 216° |
| 2026-04-22 16:58 | 25.25128 | -52.85625 | 36032 ft | 434 kts | 216° |
| 2026-04-22 16:59 | 25.19775 | -52.88692 | 36037 ft | 433 kts | 216° |
| 2026-04-22 16:59 | 25.14420 | -52.91758 | 36037 ft | 433 kts | 216° |
| 2026-04-22 17:00 | 25.09071 | -52.94818 | 36038 ft | 433 kts | 217° |
| 2026-04-22 17:00 | 25.01049 | -52.99394 | 36034 ft | 433 kts | 216° |
| 2026-04-22 17:01 | 24.98272 | -53.00775 | 36136 ft | 443 kts | 211° |
| 2026-04-22 17:01 | 24.95383 | -53.01974 | 36436 ft | 443 kts | 210° |
| 2026-04-22 17:01 | 24.92501 | -53.03155 | 36819 ft | 441 kts | 210° |
| 2026-04-22 17:01 | 24.89631 | -53.04330 | 37205 ft | 439 kts | 211° |
| 2026-04-22 17:02 | 24.86777 | -53.05501 | 37556 ft | 437 kts | 211° |
| 2026-04-22 17:02 | 24.83928 | -53.06676 | 37857 ft | 437 kts | 211° |
| 2026-04-22 17:02 | 24.78218 | -53.09045 | 38007 ft | 440 kts | 211° |
| 2026-04-22 17:03 | 24.72502 | -53.11414 | 38025 ft | 437 kts | 211° |
| 2026-04-22 17:03 | 24.66835 | -53.13758 | 38028 ft | 434 kts | 211° |
| 2026-04-22 17:04 | 24.61191 | -53.16093 | 38030 ft | 432 kts | 211° |
| 2026-04-22 17:04 | 24.55571 | -53.18418 | 38037 ft | 431 kts | 211° |
| 2026-04-22 17:05 | 24.49957 | -53.20738 | 38047 ft | 432 kts | 211° |
| 2026-04-22 17:05 | 24.44326 | -53.23064 | 38039 ft | 433 kts | 211° |
| 2026-04-22 17:06 | 24.38673 | -53.25395 | 38054 ft | 434 kts | 211° |
| 2026-04-22 17:06 | 24.33010 | -53.27726 | 38053 ft | 435 kts | 211° |
| 2026-04-22 17:07 | 24.27333 | -53.30061 | 38043 ft | 436 kts | 211° |
| 2026-04-22 17:07 | 24.21645 | -53.32398 | 38039 ft | 437 kts | 211° |
| 2026-04-22 17:08 | 24.15957 | -53.34733 | 38038 ft | 437 kts | 211° |
| 2026-04-22 17:08 | 24.10268 | -53.37067 | 38038 ft | 436 kts | 211° |
| 2026-04-22 17:09 | 24.04582 | -53.39396 | 38034 ft | 436 kts | 211° |
| 2026-04-22 17:09 | 23.98896 | -53.41724 | 38040 ft | 436 kts | 211° |
| 2026-04-22 17:10 | 23.93216 | -53.44047 | 38034 ft | 435 kts | 211° |
| 2026-04-22 17:10 | 23.87550 | -53.46362 | 38033 ft | 435 kts | 211° |
| 2026-04-22 17:11 | 23.81888 | -53.48674 | 38040 ft | 434 kts | 211° |
| 2026-04-22 17:11 | 23.76224 | -53.50984 | 38037 ft | 434 kts | 211° |
| 2026-04-22 17:12 | 23.70566 | -53.53290 | 38042 ft | 434 kts | 211° |
| 2026-04-22 17:12 | 23.64910 | -53.55593 | 38040 ft | 434 kts | 211° |
| 2026-04-22 17:13 | 23.59249 | -53.57896 | 38042 ft | 434 kts | 211° |
| 2026-04-22 17:13 | 23.53587 | -53.60197 | 38039 ft | 434 kts | 211° |
| 2026-04-22 17:14 | 23.47921 | -53.62498 | 38041 ft | 434 kts | 211° |
| 2026-04-22 17:14 | 23.42257 | -53.64795 | 38038 ft | 434 kts | 211° |
| 2026-04-22 17:15 | 23.36603 | -53.67086 | 38041 ft | 434 kts | 211° |
| 2026-04-22 17:15 | 23.30941 | -53.69379 | 38040 ft | 434 kts | 211° |
| 2026-04-22 17:16 | 23.25284 | -53.71667 | 38039 ft | 434 kts | 211° |
| 2026-04-22 17:16 | 23.19674 | -53.73934 | 38040 ft | 433 kts | 211° |
| 2026-04-22 17:17 | 23.13986 | -53.76229 | 37950 ft | 441 kts | 205° |
| 2026-04-22 17:17 | 23.11089 | -53.77373 | 38062 ft | 444 kts | 207° |
| 2026-04-22 17:17 | 23.08168 | -53.78553 | 38038 ft | 450 kts | 207° |
| 2026-04-22 17:18 | 23.02239 | -53.80965 | 38049 ft | 460 kts | 207° |
| 2026-04-22 17:18 | 22.96198 | -53.83409 | 38042 ft | 465 kts | 207° |
| 2026-04-22 17:19 | 22.84017 | -53.88301 | 38035 ft | 467 kts | 207° |
| 2026-04-22 17:20 | 22.71873 | -53.93170 | 38031 ft | 463 kts | 207° |
| 2026-04-22 17:21 | 22.63821 | -53.96396 | 38027 ft | 460 kts | 207° |
| 2026-04-22 17:22 | 22.54850 | -53.99986 | 38036 ft | 457 kts | 207° |
| 2026-04-22 17:23 | 22.45922 | -54.03554 | 38030 ft | 455 kts | 207° |
| 2026-04-22 17:23 | 22.37023 | -54.07106 | 38036 ft | 454 kts | 207° |
| 2026-04-22 17:24 | 22.31087 | -54.09473 | 38036 ft | 455 kts | 207° |
| 2026-04-22 17:24 | 22.25152 | -54.11837 | 38038 ft | 455 kts | 207° |
| 2026-04-22 17:25 | 22.19205 | -54.14203 | 38031 ft | 455 kts | 207° |
| 2026-04-22 17:25 | 22.13260 | -54.16566 | 38032 ft | 456 kts | 207° |
| 2026-04-22 17:26 | 22.07310 | -54.18929 | 38032 ft | 456 kts | 207° |
| 2026-04-22 17:26 | 22.01359 | -54.21291 | 38030 ft | 456 kts | 207° |
| 2026-04-22 17:27 | 21.95417 | -54.23646 | 38041 ft | 455 kts | 207° |
| 2026-04-22 17:27 | 21.89468 | -54.26003 | 38021 ft | 455 kts | 207° |
| 2026-04-22 17:28 | 21.83521 | -54.28356 | 38016 ft | 455 kts | 207° |
| 2026-04-22 17:28 | 21.77582 | -54.30704 | 38033 ft | 454 kts | 207° |
| 2026-04-22 17:29 | 21.71648 | -54.33048 | 38023 ft | 454 kts | 207° |
| 2026-04-22 17:29 | 21.65725 | -54.35386 | 38027 ft | 453 kts | 207° |
| 2026-04-22 17:30 | 21.59808 | -54.37719 | 38026 ft | 452 kts | 207° |
| 2026-04-22 17:30 | 21.53938 | -54.40032 | 38028 ft | 452 kts | 207° |
| 2026-04-22 17:31 | 21.48037 | -54.42355 | 38030 ft | 451 kts | 207° |
| 2026-04-22 17:31 | 21.42142 | -54.44674 | 38029 ft | 451 kts | 208° |
| 2026-04-22 17:32 | 21.36251 | -54.46989 | 38027 ft | 450 kts | 208° |
| 2026-04-22 17:32 | 21.30365 | -54.49300 | 38027 ft | 450 kts | 208° |
| 2026-04-22 17:33 | 21.24484 | -54.51607 | 38026 ft | 450 kts | 208° |
| 2026-04-22 17:33 | 21.18605 | -54.53912 | 38021 ft | 450 kts | 208° |
| 2026-04-22 17:34 | 21.12726 | -54.56214 | 38017 ft | 449 kts | 208° |
| 2026-04-22 17:34 | 21.06854 | -54.58512 | 38025 ft | 449 kts | 208° |
| 2026-04-22 17:35 | 21.01023 | -54.60792 | 38020 ft | 449 kts | 208° |
| 2026-04-22 17:35 | 20.95160 | -54.63083 | 38019 ft | 449 kts | 207° |
| 2026-04-22 17:36 | 20.89287 | -54.65375 | 38033 ft | 449 kts | 207° |
| 2026-04-22 17:36 | 20.83430 | -54.67659 | 37997 ft | 447 kts | 208° |
| 2026-04-22 17:37 | 20.77699 | -54.69878 | 38003 ft | 431 kts | 208° |
| 2026-04-22 17:37 | 20.72072 | -54.72070 | 38018 ft | 430 kts | 208° |
| 2026-04-22 17:38 | 20.66449 | -54.74266 | 38033 ft | 431 kts | 208° |
| 2026-04-22 17:38 | 20.60809 | -54.76465 | 38024 ft | 433 kts | 208° |
| 2026-04-22 17:39 | 20.55137 | -54.78670 | 38023 ft | 435 kts | 208° |
| 2026-04-22 17:40 | 20.46620 | -54.81975 | 38019 ft | 437 kts | 208° |
| 2026-04-22 17:40 | 20.40899 | -54.84193 | 38018 ft | 438 kts | 208° |
| 2026-04-22 17:41 | 20.35156 | -54.86417 | 38018 ft | 439 kts | 208° |
| 2026-04-22 17:41 | 20.29424 | -54.88635 | 38018 ft | 439 kts | 208° |
| 2026-04-22 17:42 | 20.23683 | -54.90856 | 38011 ft | 438 kts | 208° |
| 2026-04-22 17:42 | 20.17949 | -54.93072 | 38011 ft | 438 kts | 208° |
| 2026-04-22 17:43 | 20.12228 | -54.95282 | 38012 ft | 437 kts | 208° |
| 2026-04-22 17:43 | 20.06506 | -54.97490 | 38010 ft | 437 kts | 208° |
| 2026-04-22 17:44 | 20.01048 | -55.00144 | 38018 ft | 426 kts | 218° |
| 2026-04-22 17:44 | 19.96261 | -55.03744 | 38007 ft | 418 kts | 227° |
| 2026-04-22 17:45 | 19.92060 | -55.07962 | 38008 ft | 416 kts | 229° |
| 2026-04-22 17:45 | 19.87903 | -55.12242 | 38015 ft | 416 kts | 229° |
| 2026-04-22 17:46 | 19.83730 | -55.16513 | 38014 ft | 417 kts | 229° |
| 2026-04-22 17:46 | 19.79542 | -55.20774 | 38023 ft | 417 kts | 229° |
| 2026-04-22 17:47 | 19.75339 | -55.25036 | 38017 ft | 418 kts | 229° |
| 2026-04-22 17:47 | 19.71103 | -55.29326 | 38013 ft | 418 kts | 229° |
| 2026-04-22 17:48 | 19.67603 | -55.32868 | 38002 ft | 419 kts | 229° |
| 2026-04-22 17:48 | 19.62698 | -55.37828 | 38010 ft | 419 kts | 229° |
| 2026-04-22 17:49 | 19.58476 | -55.42095 | 38009 ft | 419 kts | 229° |
| 2026-04-22 17:49 | 19.54251 | -55.46362 | 38009 ft | 419 kts | 229° |
| 2026-04-22 17:50 | 19.50023 | -55.50627 | 38010 ft | 420 kts | 229° |
| 2026-04-22 17:50 | 19.45793 | -55.54892 | 38006 ft | 420 kts | 229° |
| 2026-04-22 17:51 | 19.41564 | -55.59153 | 38007 ft | 420 kts | 229° |
| 2026-04-22 17:51 | 19.37329 | -55.63416 | 37998 ft | 420 kts | 229° |
| 2026-04-22 17:52 | 19.33091 | -55.67681 | 38001 ft | 420 kts | 229° |
| 2026-04-22 17:52 | 19.28844 | -55.71949 | 38003 ft | 421 kts | 229° |
| 2026-04-22 17:53 | 19.24601 | -55.76212 | 38004 ft | 421 kts | 229° |
| 2026-04-22 17:53 | 19.20353 | -55.80475 | 38003 ft | 421 kts | 229° |
| 2026-04-22 17:54 | 19.16102 | -55.84739 | 38004 ft | 421 kts | 229° |
| 2026-04-22 17:54 | 19.11845 | -55.89005 | 38000 ft | 422 kts | 229° |
| 2026-04-22 17:55 | 19.08274 | -55.92582 | 37995 ft | 422 kts | 229° |
| 2026-04-22 17:55 | 19.03321 | -55.97539 | 37997 ft | 422 kts | 229° |
| 2026-04-22 17:56 | 18.99048 | -56.01812 | 37993 ft | 423 kts | 229° |
| 2026-04-22 17:56 | 18.94772 | -56.06085 | 37996 ft | 423 kts | 229° |
| 2026-04-22 17:57 | 18.90496 | -56.10355 | 37995 ft | 423 kts | 229° |
| 2026-04-22 17:57 | 18.86207 | -56.14634 | 37986 ft | 424 kts | 229° |
| 2026-04-22 17:58 | 18.81918 | -56.18910 | 38005 ft | 424 kts | 229° |
| 2026-04-22 17:58 | 18.77625 | -56.23188 | 38003 ft | 424 kts | 229° |
| 2026-04-22 17:59 | 18.73332 | -56.27461 | 37997 ft | 425 kts | 229° |
| 2026-04-22 17:59 | 18.69033 | -56.31738 | 37979 ft | 425 kts | 229° |
| 2026-04-22 18:00 | 18.66157 | -56.34598 | 37999 ft | 425 kts | 229° |
| 2026-04-22 18:00 | 18.60429 | -56.40288 | 37991 ft | 425 kts | 229° |
| 2026-04-22 18:01 | 18.56120 | -56.44566 | 37995 ft | 425 kts | 229° |
| 2026-04-22 18:01 | 18.51812 | -56.48839 | 37990 ft | 426 kts | 229° |
| 2026-04-22 18:02 | 18.48224 | -56.52395 | 37978 ft | 426 kts | 229° |
| 2026-04-22 18:02 | 18.43912 | -56.56667 | 37986 ft | 426 kts | 229° |
| 2026-04-22 18:03 | 18.39592 | -56.60943 | 37983 ft | 426 kts | 229° |
| 2026-04-22 18:03 | 18.35270 | -56.65219 | 37988 ft | 426 kts | 229° |
| 2026-04-22 18:04 | 18.30947 | -56.69492 | 37985 ft | 427 kts | 229° |
| 2026-04-22 18:04 | 18.26616 | -56.73770 | 37984 ft | 427 kts | 228° |
| 2026-04-22 18:05 | 18.22289 | -56.78042 | 37984 ft | 427 kts | 228° |
| 2026-04-22 18:05 | 18.17950 | -56.82322 | 37985 ft | 428 kts | 228° |
| 2026-04-22 18:06 | 18.13607 | -56.86603 | 37986 ft | 428 kts | 228° |
| 2026-04-22 18:06 | 18.09260 | -56.90886 | 37984 ft | 429 kts | 228° |
| 2026-04-22 18:07 | 18.04909 | -56.95170 | 37982 ft | 429 kts | 228° |
| 2026-04-22 18:07 | 18.00581 | -56.99486 | 37981 ft | 427 kts | 231° |
| 2026-04-22 18:08 | 17.96811 | -57.04255 | 37988 ft | 424 kts | 237° |
| 2026-04-22 18:08 | 17.93224 | -57.09170 | 37978 ft | 424 kts | 237° |
| 2026-04-22 18:09 | 17.89620 | -57.14079 | 37977 ft | 425 kts | 236° |
| 2026-04-22 18:09 | 17.86003 | -57.18985 | 37980 ft | 425 kts | 236° |
| 2026-04-22 18:10 | 17.82380 | -57.23891 | 37981 ft | 425 kts | 236° |
| 2026-04-22 18:10 | 17.78752 | -57.28801 | 37976 ft | 426 kts | 236° |
| 2026-04-22 18:11 | 17.75123 | -57.33709 | 37979 ft | 426 kts | 236° |
| 2026-04-22 18:11 | 17.71491 | -57.38618 | 37977 ft | 426 kts | 236° |
| 2026-04-22 18:12 | 17.67857 | -57.43528 | 37977 ft | 426 kts | 236° |
| 2026-04-22 18:12 | 17.64807 | -57.47643 | 37979 ft | 427 kts | 236° |
| 2026-04-22 18:13 | 17.60570 | -57.53353 | 37979 ft | 427 kts | 236° |
| 2026-04-22 18:13 | 17.56922 | -57.58266 | 37981 ft | 427 kts | 236° |
| 2026-04-22 18:14 | 17.53271 | -57.63180 | 37982 ft | 427 kts | 236° |
| 2026-04-22 18:14 | 17.49618 | -57.68094 | 37978 ft | 428 kts | 236° |
| 2026-04-22 18:15 | 17.45963 | -57.73006 | 37975 ft | 428 kts | 236° |
| 2026-04-22 18:15 | 17.42299 | -57.77929 | 37974 ft | 428 kts | 236° |
| 2026-04-22 18:16 | 17.38634 | -57.82848 | 37975 ft | 428 kts | 236° |
| 2026-04-22 18:16 | 17.34971 | -57.87762 | 37976 ft | 428 kts | 236° |
| 2026-04-22 18:17 | 17.31305 | -57.92675 | 37973 ft | 429 kts | 236° |
| 2026-04-22 18:17 | 17.27632 | -57.97595 | 37978 ft | 429 kts | 236° |
| 2026-04-22 18:18 | 17.23959 | -58.02511 | 37976 ft | 429 kts | 236° |
| 2026-04-22 18:18 | 17.20260 | -58.07458 | 37975 ft | 429 kts | 235° |
| 2026-04-22 18:19 | 17.16580 | -58.12377 | 37974 ft | 429 kts | 235° |
| 2026-04-22 18:19 | 17.12925 | -58.17258 | 37974 ft | 429 kts | 235° |
| 2026-04-22 18:20 | 17.09214 | -58.22211 | 37978 ft | 430 kts | 235° |
| 2026-04-22 18:20 | 17.05527 | -58.27128 | 37975 ft | 430 kts | 235° |
| 2026-04-22 18:21 | 17.01836 | -58.32046 | 37972 ft | 430 kts | 235° |
| 2026-04-22 18:21 | 16.98143 | -58.36964 | 37973 ft | 430 kts | 235° |
| 2026-04-22 18:22 | 16.94450 | -58.41879 | 37974 ft | 430 kts | 235° |
| 2026-04-22 18:22 | 16.90752 | -58.46796 | 37972 ft | 430 kts | 235° |
| 2026-04-22 18:23 | 16.87055 | -58.51709 | 37976 ft | 430 kts | 234° |
| 2026-04-22 18:23 | 16.83354 | -58.56624 | 37979 ft | 430 kts | 234° |
| 2026-04-22 18:24 | 16.77801 | -58.63992 | 37990 ft | 430 kts | 234° |
| 2026-04-22 18:25 | 16.72248 | -58.71351 | 37985 ft | 430 kts | 234° |
| 2026-04-22 18:25 | 16.68543 | -58.76257 | 37972 ft | 430 kts | 234° |
| 2026-04-22 18:26 | 16.62985 | -58.83611 | 37980 ft | 430 kts | 234° |
| 2026-04-22 18:26 | 16.59281 | -58.88508 | 37980 ft | 430 kts | 234° |
| 2026-04-22 18:27 | 16.55574 | -58.93404 | 37961 ft | 430 kts | 234° |
| 2026-04-22 18:27 | 16.51869 | -58.98296 | 37959 ft | 430 kts | 234° |
| 2026-04-22 18:28 | 16.48165 | -59.03182 | 37978 ft | 430 kts | 234° |
| 2026-04-22 18:28 | 16.44455 | -59.08073 | 37982 ft | 430 kts | 234° |
| 2026-04-22 18:29 | 16.40744 | -59.12962 | 37977 ft | 430 kts | 234° |
| 2026-04-22 18:29 | 16.37030 | -59.17851 | 37962 ft | 430 kts | 234° |
| 2026-04-22 18:30 | 16.31453 | -59.25188 | 37971 ft | 431 kts | 234° |
| 2026-04-22 18:31 | 16.27736 | -59.30073 | 37972 ft | 431 kts | 234° |
| 2026-04-22 18:31 | 16.24017 | -59.34959 | 37972 ft | 431 kts | 234° |
| 2026-04-22 18:32 | 16.20289 | -59.39852 | 37974 ft | 431 kts | 234° |
| 2026-04-22 18:32 | 16.17069 | -59.45085 | 37975 ft | 429 kts | 243° |
| 2026-04-22 18:33 | 16.14638 | -59.50742 | 37968 ft | 428 kts | 250° |
| 2026-04-22 18:33 | 16.12659 | -59.56587 | 37974 ft | 429 kts | 251° |
| 2026-04-22 18:34 | 16.10699 | -59.62451 | 37974 ft | 430 kts | 251° |
| 2026-04-22 18:34 | 16.08713 | -59.68319 | 37974 ft | 430 kts | 250° |
| 2026-04-22 18:35 | 16.06710 | -59.74190 | 37972 ft | 431 kts | 250° |
| 2026-04-22 18:35 | 16.04702 | -59.80062 | 37969 ft | 431 kts | 250° |
| 2026-04-22 18:36 | 16.02689 | -59.85943 | 37971 ft | 432 kts | 250° |
| 2026-04-22 18:36 | 16.00676 | -59.91822 | 37974 ft | 432 kts | 250° |
| 2026-04-22 18:37 | 15.98677 | -59.97652 | 37698 ft | 423 kts | 250° |
| 2026-04-22 18:37 | 15.98011 | -59.99594 | 37492 ft | 421 kts | 250° |
| 2026-04-22 18:37 | 15.96698 | -60.03420 | 37005 ft | 419 kts | 250° |
| 2026-04-22 18:38 | 15.95721 | -60.06268 | 36639 ft | 418 kts | 250° |
| 2026-04-22 18:38 | 15.94746 | -60.09107 | 36301 ft | 416 kts | 250° |
| 2026-04-22 18:38 | 15.93775 | -60.11932 | 35989 ft | 414 kts | 250° |
| 2026-04-22 18:39 | 15.91521 | -60.17369 | 35263 ft | 411 kts | 234° |
| 2026-04-22 18:39 | 15.89571 | -60.19547 | 34882 ft | 414 kts | 223° |
| 2026-04-22 18:39 | 15.87249 | -60.21320 | 34571 ft | 416 kts | 213° |
| 2026-04-22 18:39 | 15.85503 | -60.22153 | 34342 ft | 418 kts | 204° |
| 2026-04-22 18:40 | 15.82724 | -60.23159 | 34000 ft | 418 kts | 203° |
| 2026-04-22 18:40 | 15.80000 | -60.24097 | 33630 ft | 417 kts | 202° |
| 2026-04-22 18:40 | 15.77247 | -60.25035 | 33279 ft | 416 kts | 202° |
| 2026-04-22 18:40 | 15.74511 | -60.25978 | 32934 ft | 414 kts | 203° |
| 2026-04-22 18:41 | 15.71777 | -60.26933 | 32597 ft | 413 kts | 203° |
| 2026-04-22 18:41 | 15.69066 | -60.27891 | 32268 ft | 412 kts | 203° |
| 2026-04-22 18:41 | 15.66362 | -60.28855 | 31951 ft | 410 kts | 203° |
| 2026-04-22 18:41 | 15.63660 | -60.29822 | 31610 ft | 409 kts | 203° |
| 2026-04-22 18:42 | 15.60975 | -60.30786 | 31304 ft | 408 kts | 203° |
| 2026-04-22 18:42 | 15.58290 | -60.31750 | 30981 ft | 407 kts | 203° |
| 2026-04-22 18:42 | 15.55616 | -60.32711 | 30670 ft | 406 kts | 203° |
| 2026-04-22 18:42 | 15.52948 | -60.33668 | 30359 ft | 406 kts | 203° |
| 2026-04-22 18:43 | 15.50282 | -60.34625 | 30057 ft | 405 kts | 203° |
| 2026-04-22 18:43 | 15.47625 | -60.35578 | 29729 ft | 404 kts | 203° |
| 2026-04-22 18:43 | 15.44975 | -60.36528 | 29424 ft | 402 kts | 203° |
| 2026-04-22 18:43 | 15.42341 | -60.37471 | 29026 ft | 399 kts | 203° |
| 2026-04-22 18:44 | 15.39727 | -60.38407 | 28561 ft | 396 kts | 203° |
| 2026-04-22 18:44 | 15.37133 | -60.39336 | 28110 ft | 393 kts | 203° |
| 2026-04-22 18:44 | 15.34554 | -60.40259 | 27663 ft | 391 kts | 203° |
| 2026-04-22 18:44 | 15.31993 | -60.41176 | 27223 ft | 388 kts | 203° |
| 2026-04-22 18:45 | 15.29447 | -60.42087 | 26791 ft | 386 kts | 203° |
| 2026-04-22 18:45 | 15.26920 | -60.42991 | 26343 ft | 384 kts | 203° |
| 2026-04-22 18:45 | 15.24398 | -60.43894 | 25922 ft | 382 kts | 203° |
| 2026-04-22 18:45 | 15.21891 | -60.44791 | 25493 ft | 381 kts | 203° |
| 2026-04-22 18:46 | 15.19394 | -60.45684 | 25055 ft | 380 kts | 202° |
| 2026-04-22 18:46 | 15.16895 | -60.46578 | 24615 ft | 379 kts | 202° |
| 2026-04-22 18:46 | 15.14409 | -60.47466 | 24207 ft | 378 kts | 202° |
| 2026-04-22 18:46 | 15.11925 | -60.48354 | 24033 ft | 380 kts | 202° |
| 2026-04-22 18:47 | 15.09416 | -60.49251 | 23982 ft | 382 kts | 202° |
| 2026-04-22 18:47 | 15.06917 | -60.50143 | 23947 ft | 378 kts | 202° |
| 2026-04-22 18:47 | 15.04448 | -60.51024 | 23714 ft | 374 kts | 202° |
| 2026-04-22 18:47 | 15.01998 | -60.51897 | 23353 ft | 371 kts | 202° |
| 2026-04-22 18:48 | 14.99569 | -60.52764 | 22854 ft | 365 kts | 202° |
| 2026-04-22 18:48 | 14.97188 | -60.53612 | 22089 ft | 360 kts | 202° |
| 2026-04-22 18:48 | 14.94856 | -60.54443 | 21583 ft | 348 kts | 202° |
| 2026-04-22 18:48 | 14.92635 | -60.55231 | 21309 ft | 326 kts | 202° |
| 2026-04-22 18:49 | 14.90549 | -60.55972 | 20942 ft | 309 kts | 202° |
| 2026-04-22 18:49 | 14.88556 | -60.56681 | 20438 ft | 299 kts | 202° |
| 2026-04-22 18:49 | 14.86607 | -60.57378 | 19828 ft | 294 kts | 202° |
| 2026-04-22 18:49 | 14.84688 | -60.58064 | 19150 ft | 292 kts | 202° |
| 2026-04-22 18:50 | 14.82763 | -60.58752 | 18491 ft | 296 kts | 202° |
| 2026-04-22 18:50 | 14.80810 | -60.59451 | 18073 ft | 298 kts | 201° |
| 2026-04-22 18:50 | 14.78862 | -60.60145 | 17798 ft | 293 kts | 201° |
| 2026-04-22 18:50 | 14.76943 | -60.60828 | 17508 ft | 290 kts | 201° |
| 2026-04-22 18:51 | 14.75283 | -60.61420 | 17208 ft | 289 kts | 201° |
| 2026-04-22 18:51 | 14.73408 | -60.62087 | 16867 ft | 288 kts | 201° |
| 2026-04-22 18:51 | 14.71490 | -60.62770 | 16527 ft | 287 kts | 201° |
| 2026-04-22 18:51 | 14.69635 | -60.63430 | 16211 ft | 286 kts | 201° |
| 2026-04-22 18:52 | 14.67760 | -60.64097 | 15897 ft | 284 kts | 201° |
| 2026-04-22 18:52 | 14.65893 | -60.64761 | 15582 ft | 283 kts | 201° |
| 2026-04-22 18:52 | 14.64037 | -60.65422 | 15269 ft | 281 kts | 201° |
| 2026-04-22 18:52 | 14.62188 | -60.66079 | 14966 ft | 280 kts | 201° |
| 2026-04-22 18:53 | 14.60352 | -60.66732 | 14668 ft | 279 kts | 200° |
| 2026-04-22 18:53 | 14.58518 | -60.67384 | 14365 ft | 278 kts | 200° |
| 2026-04-22 18:53 | 14.56699 | -60.68030 | 14075 ft | 276 kts | 200° |
| 2026-04-22 18:53 | 14.54884 | -60.68675 | 13795 ft | 275 kts | 200° |
| 2026-04-22 18:54 | 14.53095 | -60.69311 | 13384 ft | 269 kts | 200° |
| 2026-04-22 18:54 | 14.51326 | -60.69939 | 12827 ft | 269 kts | 200° |
| 2026-04-22 18:54 | 14.49561 | -60.70566 | 12268 ft | 267 kts | 200° |
| 2026-04-22 18:54 | 14.47813 | -60.71186 | 11795 ft | 264 kts | 200° |
| 2026-04-22 18:55 | 14.46196 | -60.72017 | 11244 ft | 260 kts | 223° |
| 2026-04-22 18:55 | 14.45170 | -60.73531 | 10891 ft | 258 kts | 250° |
| 2026-04-22 18:55 | 14.44826 | -60.75324 | 10623 ft | 254 kts | 268° |
| 2026-04-22 18:55 | 14.44827 | -60.77125 | 10483 ft | 248 kts | 270° |
| 2026-04-22 18:56 | 14.44851 | -60.78897 | 10390 ft | 249 kts | 270° |
| 2026-04-22 18:56 | 14.44878 | -60.80725 | 10324 ft | 257 kts | 270° |
| 2026-04-22 18:56 | 14.44904 | -60.82573 | 10148 ft | 258 kts | 270° |
| 2026-04-22 18:56 | 14.44927 | -60.84418 | 9916 ft | 257 kts | 270° |
| 2026-04-22 18:57 | 14.44949 | -60.86264 | 9575 ft | 257 kts | 270° |
| 2026-04-22 18:57 | 14.44965 | -60.88105 | 9270 ft | 256 kts | 270° |
| 2026-04-22 18:57 | 14.44981 | -60.89941 | 8958 ft | 255 kts | 270° |
| 2026-04-22 18:57 | 14.44996 | -60.91754 | 8788 ft | 249 kts | 270° |
| 2026-04-22 18:58 | 14.45011 | -60.93519 | 8680 ft | 245 kts | 270° |
| 2026-04-22 18:58 | 14.45024 | -60.95293 | 8592 ft | 250 kts | 270° |
| 2026-04-22 18:58 | 14.45037 | -60.97107 | 8511 ft | 255 kts | 270° |
| 2026-04-22 18:58 | 14.45049 | -60.98927 | 8397 ft | 257 kts | 270° |
| 2026-04-22 18:59 | 14.45061 | -61.00769 | 8130 ft | 258 kts | 270° |
| 2026-04-22 18:59 | 14.45075 | -61.02669 | 7661 ft | 267 kts | 270° |
| 2026-04-22 18:59 | 14.45089 | -61.04592 | 7330 ft | 268 kts | 270° |
| 2026-04-22 18:59 | 14.45102 | -61.06520 | 6998 ft | 270 kts | 270° |
| 2026-04-22 19:00 | 14.45115 | -61.08481 | 6530 ft | 277 kts | 270° |
| 2026-04-22 19:00 | 14.45129 | -61.10452 | 6152 ft | 270 kts | 270° |
| 2026-04-22 19:00 | 14.45141 | -61.12352 | 5827 ft | 261 kts | 270° |
| 2026-04-22 19:00 | 14.45152 | -61.14214 | 5555 ft | 260 kts | 270° |
| 2026-04-22 19:01 | 14.45164 | -61.16077 | 5263 ft | 259 kts | 270° |
| 2026-04-22 19:01 | 14.45176 | -61.17921 | 5119 ft | 253 kts | 270° |
| 2026-04-22 19:01 | 14.45207 | -61.19712 | 4857 ft | 250 kts | 277° |
| 2026-04-22 19:01 | 14.45822 | -61.21359 | 4416 ft | 242 kts | 310° |
| 2026-04-22 19:02 | 14.47125 | -61.22340 | 4145 ft | 230 kts | 342° |
| 2026-04-22 19:02 | 14.48673 | -61.22615 | 3894 ft | 224 kts | 3° |
| 2026-04-22 19:02 | 14.50179 | -61.22333 | 3680 ft | 216 kts | 17° |
| 2026-04-22 19:02 | 14.51560 | -61.21906 | 3602 ft | 204 kts | 18° |
| 2026-04-22 19:03 | 14.52940 | -61.21472 | 3469 ft | 204 kts | 18° |
| 2026-04-22 19:03 | 14.54244 | -61.21014 | 3358 ft | 195 kts | 30° |
| 2026-04-22 19:03 | 14.55124 | -61.20036 | 3281 ft | 184 kts | 66° |
| 2026-04-22 19:03 | 14.55599 | -61.18794 | 3162 ft | 191 kts | 71° |
| 2026-04-22 19:04 | 14.56000 | -61.17487 | 2935 ft | 191 kts | 73° |
| 2026-04-22 19:04 | 14.56350 | -61.16192 | 2671 ft | 183 kts | 77° |
| 2026-04-22 19:04 | 14.56600 | -61.14943 | 2443 ft | 174 kts | 79° |
| 2026-04-22 19:04 | 14.56816 | -61.13713 | 2254 ft | 175 kts | 79° |
| 2026-04-22 19:05 | 14.57031 | -61.12459 | 2006 ft | 178 kts | 79° |
| 2026-04-22 19:05 | 14.57242 | -61.11219 | 1769 ft | 171 kts | 79° |
| 2026-04-22 19:05 | 14.57442 | -61.10048 | 1558 ft | 159 kts | 79° |
| 2026-04-22 19:05 | 14.57624 | -61.08981 | 1366 ft | 145 kts | 79° |
| 2026-04-22 19:06 | 14.57801 | -61.07946 | 1174 ft | 148 kts | 79° |
| 2026-04-22 19:06 | 14.57979 | -61.06901 | 992 ft | 148 kts | 79° |
| 2026-04-22 19:06 | 14.58156 | -61.05863 | 804 ft | 145 kts | 79° |
| 2026-04-22 19:07 | 14.58501 | -61.03843 | 421 ft | 140 kts | 78° |
| 2026-04-22 19:07 | 14.58672 | -61.02851 | 258 ft | 141 kts | 77° |
| 2026-04-22 19:07 | 14.58845 | -61.01846 | 62 ft | 143 kts | 78° |
| 2026-04-22 19:07 | 14.59008 | -61.00890 | 25 ft | 122 kts | 80° |
| 2026-04-22 19:08 | 14.59129 | -61.00182 | 25 ft | 78 kts | 80° |
| 2026-04-22 19:08 | 14.59197 | -60.99787 | 24 ft | 37 kts | 80° |
| 2026-04-22 19:08 | 14.59225 | -60.99674 | 30 ft | 9 kts | 51° |
| 2026-04-22 19:08 | 14.59286 | -60.99663 | 28 ft | 10 kts | 351° |
| 2026-04-22 19:09 | 14.59358 | -60.99676 | 26 ft | 9 kts | 351° |
| 2026-04-22 19:09 | 14.59402 | -60.99718 | 24 ft | 10 kts | 278° |
| 2026-04-22 19:09 | 14.59397 | -60.99766 | 23 ft | 10 kts | 260° |
| 2026-04-22 19:09 | 14.59381 | -60.99868 | 24 ft | 12 kts | 260° |
| 2026-04-22 19:10 | 14.59366 | -60.99953 | 25 ft | 12 kts | 259° |
| 2026-04-22 19:10 | 14.59361 | -61.00029 | 25 ft | 10 kts | 279° |
| 2026-04-22 19:10 | 14.59382 | -61.00099 | 24 ft | 10 kts | 290° |
| 2026-04-22 19:10 | 14.59409 | -61.00158 | 27 ft | 9 kts | 300° |
| 2026-04-22 19:11 | 14.59444 | -61.00206 | 25 ft | 7 kts | 311° |
| 2026-04-22 19:11 | 14.59462 | -61.00218 | 25 ft | 1 kts | 353° |
| 2026-04-22 19:11 | 14.59470 | -61.00212 | 26 ft | 2 kts | 40° |
| 2026-04-22 19:11 | 14.59482 | -61.00197 | 24 ft | 3 kts | 49° |
| 2026-04-22 19:12 | 14.59496 | -61.00181 | 25 ft | 3 kts | 48° |
| 2026-04-22 19:12 | 14.59507 | -61.00169 | 26 ft | 1 kts | 48° |
| 2026-04-22 19:12 | 14.59514 | -61.00161 | 25 ft | 1 kts | 48° |
| 2026-04-22 19:12 | 14.59514 | -61.00160 | 25 ft | 0 kts | 48° |